PWSweather.com
Personal Weather Stations
Station Observations
KOHREFORM1
Reform, Ohio, Newark, OH 43055

Reform, OhioNewark, OH 43055

Lat: 40.1502, Lon: -82.2417

Elevation: 1043

Station Type: Davis Vantage Pro 2 Plus

randysweatheronthehill.com

High Low Average
Temperature 35.1°F1.7°C 22.6°F-5.2°C 28.1°F-2.2°C
Dew Point 22.8°F-5.1°C 14.4°F-9.8°C 18.7°F-7.4°C
Winds 9.0 mph 14.5 kmh Calm Calm 2.0 mph SSE3.2 kmh SSE
Wind Gusts 11.0 mph17.7 kmh -- 5.0 mph8.0 kmh
Humidity 87% 55% 72%
Pressure 30.79 in1042.7 mb 30.29 in1025.7 mb -
Precipitation 0.00 in0.0 mm - -
Hour Temp Dew Point Humidity Winds Wind Gusts Pressure Precip Precip Rate Daily Precip Total
12:01 AM 27.6°F-2.4°C 22.8°F-5.1°C 86% 3.0 mph NW4.8 kmh NW 8.0 mph12.9 kmh 30.29 in1025.7 mb 0.00 in0.0 mm 0.00 in0.0 mm 0.00 in0.0 mm
12:03 AM 27.6°F-2.4°C 22.8°F-5.1°C 86% 5.0 mph NW8.0 kmh NW 8.0 mph12.9 kmh 30.29 in1025.7 mb 0.00 in0.0 mm 0.00 in0.0 mm 0.00 in0.0 mm
12:05 AM 27.5°F-2.5°C 22.7°F-5.2°C 86% 3.0 mph NW4.8 kmh NW 8.0 mph12.9 kmh 30.30 in1026.1 mb 0.00 in0.0 mm 0.00 in0.0 mm 0.00 in0.0 mm
12:07 AM 27.5°F-2.5°C 22.7°F-5.2°C 86% 6.0 mph NW9.7 kmh NW 8.0 mph12.9 kmh 30.29 in1025.7 mb 0.00 in0.0 mm 0.00 in0.0 mm 0.00 in0.0 mm
12:09 AM 27.5°F-2.5°C 22.7°F-5.2°C 86% 3.0 mph NNW4.8 kmh NNW 8.0 mph12.9 kmh 30.29 in1025.7 mb 0.00 in0.0 mm 0.00 in0.0 mm 0.00 in0.0 mm
12:11 AM 27.4°F-2.6°C 22.4°F-5.3°C 85% 2.0 mph WNW3.2 kmh WNW 8.0 mph12.9 kmh 30.29 in1025.7 mb 0.00 in0.0 mm 0.00 in0.0 mm 0.00 in0.0 mm
12:13 AM 27.4°F-2.6°C 22.6°F-5.2°C 86% 3.0 mph NW4.8 kmh NW 8.0 mph12.9 kmh 30.29 in1025.7 mb 0.00 in0.0 mm 0.00 in0.0 mm 0.00 in0.0 mm
12:15 AM 27.4°F-2.6°C 22.6°F-5.2°C 86% 3.0 mph NW4.8 kmh NW 8.0 mph12.9 kmh 30.29 in1025.7 mb 0.00 in0.0 mm 0.00 in0.0 mm 0.00 in0.0 mm
12:17 AM 27.4°F-2.6°C 22.6°F-5.2°C 86% 3.0 mph NNW4.8 kmh NNW 7.0 mph11.3 kmh 30.29 in1025.7 mb 0.00 in0.0 mm 0.00 in0.0 mm 0.00 in0.0 mm
12:19 AM 27.4°F-2.6°C 22.6°F-5.2°C 86% 3.0 mph NW4.8 kmh NW 7.0 mph11.3 kmh 30.29 in1025.7 mb 0.00 in0.0 mm 0.00 in0.0 mm 0.00 in0.0 mm
12:21 AM 27.4°F-2.6°C 22.6°F-5.2°C 86% 5.0 mph NW8.0 kmh NW 7.0 mph11.3 kmh 30.29 in1025.7 mb 0.00 in0.0 mm 0.00 in0.0 mm 0.00 in0.0 mm
12:23 AM 27.3°F-2.6°C 22.3°F-5.4°C 85% 4.0 mph NW6.4 kmh NW 7.0 mph11.3 kmh 30.29 in1025.7 mb 0.00 in0.0 mm 0.00 in0.0 mm 0.00 in0.0 mm
12:25 AM 27.3°F-2.6°C 22.3°F-5.4°C 85% 3.0 mph NNE4.8 kmh NNE 8.0 mph12.9 kmh 30.29 in1025.7 mb 0.00 in0.0 mm 0.00 in0.0 mm 0.00 in0.0 mm
12:27 AM 27.2°F-2.7°C 22.2°F-5.4°C 85% 4.0 mph NW6.4 kmh NW 8.0 mph12.9 kmh 30.30 in1026.1 mb 0.00 in0.0 mm 0.00 in0.0 mm 0.00 in0.0 mm
12:29 AM 27.2°F-2.7°C 22.2°F-5.4°C 85% 4.0 mph NW6.4 kmh NW 8.0 mph12.9 kmh 30.30 in1026.1 mb 0.00 in0.0 mm 0.00 in0.0 mm 0.00 in0.0 mm
12:31 AM 27.2°F-2.7°C 22.2°F-5.4°C 85% 3.0 mph NNW4.8 kmh NNW 8.0 mph12.9 kmh 30.30 in1026.1 mb 0.00 in0.0 mm 0.00 in0.0 mm 0.00 in0.0 mm
12:33 AM 27.1°F-2.7°C 22.1°F-5.5°C 85% 2.0 mph NNW3.2 kmh NNW 8.0 mph12.9 kmh 30.30 in1026.1 mb 0.00 in0.0 mm 0.00 in0.0 mm 0.00 in0.0 mm
12:35 AM 27.2°F-2.7°C 22.2°F-5.4°C 85% 3.0 mph NW4.8 kmh NW 8.0 mph12.9 kmh 30.30 in1026.1 mb 0.00 in0.0 mm 0.00 in0.0 mm 0.00 in0.0 mm
12:37 AM 27.2°F-2.7°C 22.2°F-5.4°C 85% 4.0 mph WNW6.4 kmh WNW 8.0 mph12.9 kmh 30.31 in1026.4 mb 0.00 in0.0 mm 0.00 in0.0 mm 0.00 in0.0 mm
12:39 AM 27.2°F-2.7°C 22.2°F-5.4°C 85% 5.0 mph NW8.0 kmh NW 8.0 mph12.9 kmh 30.31 in1026.4 mb 0.00 in0.0 mm 0.00 in0.0 mm 0.00 in0.0 mm
12:41 AM 27.1°F-2.7°C 22.1°F-5.5°C 85% 3.0 mph NW4.8 kmh NW 8.0 mph12.9 kmh 30.31 in1026.4 mb 0.00 in0.0 mm 0.00 in0.0 mm 0.00 in0.0 mm
12:43 AM 27.1°F-2.7°C 22.1°F-5.5°C 85% 2.0 mph NW3.2 kmh NW 8.0 mph12.9 kmh 30.31 in1026.4 mb 0.00 in0.0 mm 0.00 in0.0 mm 0.00 in0.0 mm
12:45 AM 27.1°F-2.7°C 22.1°F-5.5°C 85% 3.0 mph N4.8 kmh N 8.0 mph12.9 kmh 30.31 in1026.4 mb 0.00 in0.0 mm 0.00 in0.0 mm 0.00 in0.0 mm
12:47 AM 27.1°F-2.7°C 22.1°F-5.5°C 85% 2.0 mph NW3.2 kmh NW 8.0 mph12.9 kmh 30.31 in1026.4 mb 0.00 in0.0 mm 0.00 in0.0 mm 0.00 in0.0 mm
12:49 AM 27.1°F-2.7°C 22.1°F-5.5°C 85% 3.0 mph NW4.8 kmh NW 8.0 mph12.9 kmh 30.31 in1026.4 mb 0.00 in0.0 mm 0.00 in0.0 mm 0.00 in0.0 mm
12:51 AM 27.1°F-2.7°C 22.1°F-5.5°C 85% 2.0 mph NW3.2 kmh NW 8.0 mph12.9 kmh 30.32 in1026.8 mb 0.00 in0.0 mm 0.00 in0.0 mm 0.00 in0.0 mm
12:53 AM 27.1°F-2.7°C 22.1°F-5.5°C 85% 3.0 mph NW4.8 kmh NW 8.0 mph12.9 kmh 30.32 in1026.8 mb 0.00 in0.0 mm 0.00 in0.0 mm 0.00 in0.0 mm
12:55 AM 27.1°F-2.7°C 22.1°F-5.5°C 85% 4.0 mph NW6.4 kmh NW 6.0 mph9.7 kmh 30.32 in1026.8 mb 0.00 in0.0 mm 0.00 in0.0 mm 0.00 in0.0 mm
12:57 AM 27.1°F-2.7°C 22.1°F-5.5°C 85% 3.0 mph NNW4.8 kmh NNW 6.0 mph9.7 kmh 30.32 in1026.8 mb 0.00 in0.0 mm 0.00 in0.0 mm 0.00 in0.0 mm
12:59 AM 27.0°F-2.8°C 21.7°F-5.7°C 84% 3.0 mph NW4.8 kmh NW 6.0 mph9.7 kmh 30.32 in1026.8 mb 0.00 in0.0 mm 0.00 in0.0 mm 0.00 in0.0 mm
01:01 AM 27.0°F-2.8°C 21.7°F-5.7°C 84% 2.0 mph NNW3.2 kmh NNW 6.0 mph9.7 kmh 30.32 in1026.8 mb 0.00 in0.0 mm 0.00 in0.0 mm 0.00 in0.0 mm
01:03 AM 27.0°F-2.8°C 21.7°F-5.7°C 84% 2.0 mph NNW3.2 kmh NNW 6.0 mph9.7 kmh 30.33 in1027.1 mb 0.00 in0.0 mm 0.00 in0.0 mm 0.00 in0.0 mm
01:05 AM 27.0°F-2.8°C 22.0°F-5.6°C 85% 1.0 mph NW1.6 kmh NW 5.0 mph8.0 kmh 30.33 in1027.1 mb 0.00 in0.0 mm 0.00 in0.0 mm 0.00 in0.0 mm
01:07 AM 27.0°F-2.8°C 22.0°F-5.6°C 85% 2.0 mph NW3.2 kmh NW 5.0 mph8.0 kmh 30.33 in1027.1 mb 0.00 in0.0 mm 0.00 in0.0 mm 0.00 in0.0 mm
01:09 AM 27.0°F-2.8°C 22.0°F-5.6°C 85% 3.0 mph NNW4.8 kmh NNW 5.0 mph8.0 kmh 30.33 in1027.1 mb 0.00 in0.0 mm 0.00 in0.0 mm 0.00 in0.0 mm
01:11 AM 27.1°F-2.7°C 22.1°F-5.5°C 85% 4.0 mph NW6.4 kmh NW 5.0 mph8.0 kmh 30.33 in1027.1 mb 0.00 in0.0 mm 0.00 in0.0 mm 0.00 in0.0 mm
01:13 AM 27.0°F-2.8°C 22.0°F-5.6°C 85% 3.0 mph NW4.8 kmh NW 5.0 mph8.0 kmh 30.34 in1027.4 mb 0.00 in0.0 mm 0.00 in0.0 mm 0.00 in0.0 mm
01:15 AM 27.0°F-2.8°C 21.7°F-5.7°C 84% 2.0 mph NNW3.2 kmh NNW 7.0 mph11.3 kmh 30.34 in1027.4 mb 0.00 in0.0 mm 0.00 in0.0 mm 0.00 in0.0 mm
01:17 AM 27.0°F-2.8°C 21.7°F-5.7°C 84% 2.0 mph NNE3.2 kmh NNE 7.0 mph11.3 kmh 30.34 in1027.4 mb 0.00 in0.0 mm 0.00 in0.0 mm 0.00 in0.0 mm
01:19 AM 27.0°F-2.8°C 21.7°F-5.7°C 84% 2.0 mph NW3.2 kmh NW 7.0 mph11.3 kmh 30.34 in1027.4 mb 0.00 in0.0 mm 0.00 in0.0 mm 0.00 in0.0 mm
01:21 AM 27.0°F-2.8°C 21.7°F-5.7°C 84% 3.0 mph NNW4.8 kmh NNW 7.0 mph11.3 kmh 30.34 in1027.4 mb 0.00 in0.0 mm 0.00 in0.0 mm 0.00 in0.0 mm
01:23 AM 27.0°F-2.8°C 21.7°F-5.7°C 84% 4.0 mph NNW6.4 kmh NNW 7.0 mph11.3 kmh 30.34 in1027.4 mb 0.00 in0.0 mm 0.00 in0.0 mm 0.00 in0.0 mm
01:25 AM 27.0°F-2.8°C 21.7°F-5.7°C 84% 3.0 mph N4.8 kmh N 7.0 mph11.3 kmh 30.34 in1027.4 mb 0.00 in0.0 mm 0.00 in0.0 mm 0.00 in0.0 mm
01:27 AM 26.9°F-2.8°C 21.6°F-5.8°C 84% 5.0 mph NW8.0 kmh NW 7.0 mph11.3 kmh 30.34 in1027.4 mb 0.00 in0.0 mm 0.00 in0.0 mm 0.00 in0.0 mm
01:29 AM 26.9°F-2.8°C 21.6°F-5.8°C 84% 4.0 mph N6.4 kmh N 7.0 mph11.3 kmh 30.34 in1027.4 mb 0.00 in0.0 mm 0.00 in0.0 mm 0.00 in0.0 mm
01:31 AM 26.9°F-2.8°C 21.6°F-5.8°C 84% 2.0 mph NNW3.2 kmh NNW 7.0 mph11.3 kmh 30.34 in1027.4 mb 0.00 in0.0 mm 0.00 in0.0 mm 0.00 in0.0 mm
01:33 AM 26.9°F-2.8°C 21.6°F-5.8°C 84% 2.0 mph 3.2 kmh 7.0 mph11.3 kmh 30.34 in1027.4 mb 0.00 in0.0 mm 0.00 in0.0 mm 0.00 in0.0 mm
01:35 AM 26.9°F-2.8°C 21.6°F-5.8°C 84% 2.0 mph NNW3.2 kmh NNW 6.0 mph9.7 kmh 30.34 in1027.4 mb 0.00 in0.0 mm 0.00 in0.0 mm 0.00 in0.0 mm
01:37 AM 26.9°F-2.8°C 21.6°F-5.8°C 84% 2.0 mph NNW3.2 kmh NNW 6.0 mph9.7 kmh 30.34 in1027.4 mb 0.00 in0.0 mm 0.00 in0.0 mm 0.00 in0.0 mm
01:39 AM 26.9°F-2.8°C 21.9°F-5.6°C 85% 4.0 mph NW6.4 kmh NW 6.0 mph9.7 kmh 30.34 in1027.4 mb 0.00 in0.0 mm 0.00 in0.0 mm 0.00 in0.0 mm
01:41 AM 26.9°F-2.8°C 21.6°F-5.8°C 84% 4.0 mph WNW6.4 kmh WNW 6.0 mph9.7 kmh 30.35 in1027.8 mb 0.00 in0.0 mm 0.00 in0.0 mm 0.00 in0.0 mm
01:43 AM 26.9°F-2.8°C 21.6°F-5.8°C 84% 3.0 mph NNW4.8 kmh NNW 6.0 mph9.7 kmh 30.35 in1027.8 mb 0.00 in0.0 mm 0.00 in0.0 mm 0.00 in0.0 mm
01:45 AM 26.9°F-2.8°C 21.6°F-5.8°C 84% 2.0 mph NNW3.2 kmh NNW 5.0 mph8.0 kmh 30.36 in1028.1 mb 0.00 in0.0 mm 0.00 in0.0 mm 0.00 in0.0 mm
01:47 AM 26.9°F-2.8°C 21.6°F-5.8°C 84% 2.0 mph N3.2 kmh N 5.0 mph8.0 kmh 30.36 in1028.1 mb 0.00 in0.0 mm 0.00 in0.0 mm 0.00 in0.0 mm
01:49 AM 26.9°F-2.8°C 21.6°F-5.8°C 84% 1.0 mph N1.6 kmh N 5.0 mph8.0 kmh 30.36 in1028.1 mb 0.00 in0.0 mm 0.00 in0.0 mm 0.00 in0.0 mm
01:51 AM 27.0°F-2.8°C 22.0°F-5.6°C 85% 1.0 mph N1.6 kmh N 5.0 mph8.0 kmh 30.36 in1028.1 mb 0.00 in0.0 mm 0.00 in0.0 mm 0.00 in0.0 mm
01:53 AM 27.0°F-2.8°C 22.0°F-5.6°C 85% 1.0 mph N1.6 kmh N 5.0 mph8.0 kmh 30.36 in1028.1 mb 0.00 in0.0 mm 0.00 in0.0 mm 0.00 in0.0 mm
01:55 AM 27.0°F-2.8°C 22.0°F-5.6°C 85% 1.0 mph N1.6 kmh N 3.0 mph4.8 kmh 30.36 in1028.1 mb 0.00 in0.0 mm 0.00 in0.0 mm 0.00 in0.0 mm
01:57 AM 27.0°F-2.8°C 22.0°F-5.6°C 85% 1.0 mph N1.6 kmh N 3.0 mph4.8 kmh 30.36 in1028.1 mb 0.00 in0.0 mm 0.00 in0.0 mm 0.00 in0.0 mm
01:59 AM 27.0°F-2.8°C 22.0°F-5.6°C 85% 2.0 mph N3.2 kmh N 3.0 mph4.8 kmh 30.37 in1028.4 mb 0.00 in0.0 mm 0.00 in0.0 mm 0.00 in0.0 mm
02:01 AM 27.0°F-2.8°C 22.0°F-5.6°C 85% 1.0 mph N1.6 kmh N 3.0 mph4.8 kmh 30.37 in1028.4 mb 0.00 in0.0 mm 0.00 in0.0 mm 0.00 in0.0 mm
02:03 AM 27.0°F-2.8°C 22.0°F-5.6°C 85% 2.0 mph N3.2 kmh N 3.0 mph4.8 kmh 30.37 in1028.4 mb 0.00 in0.0 mm 0.00 in0.0 mm 0.00 in0.0 mm
02:05 AM 27.0°F-2.8°C 22.0°F-5.6°C 85% 2.0 mph NNW3.2 kmh NNW 4.0 mph6.4 kmh 30.37 in1028.4 mb 0.00 in0.0 mm 0.00 in0.0 mm 0.00 in0.0 mm
02:07 AM 27.0°F-2.8°C 21.7°F-5.7°C 84% 3.0 mph NNW4.8 kmh NNW 5.0 mph8.0 kmh 30.37 in1028.4 mb 0.00 in0.0 mm 0.00 in0.0 mm 0.00 in0.0 mm
02:09 AM 26.9°F-2.8°C 21.6°F-5.8°C 84% 6.0 mph WNW9.7 kmh WNW 7.0 mph11.3 kmh 30.37 in1028.4 mb 0.00 in0.0 mm 0.00 in0.0 mm 0.00 in0.0 mm
02:11 AM 26.9°F-2.8°C 21.6°F-5.8°C 84% 4.0 mph NNW6.4 kmh NNW 7.0 mph11.3 kmh 30.37 in1028.4 mb 0.00 in0.0 mm 0.00 in0.0 mm 0.00 in0.0 mm
02:13 AM 26.9°F-2.8°C 21.3°F-5.9°C 83% 3.0 mph NNW4.8 kmh NNW 7.0 mph11.3 kmh 30.38 in1028.8 mb 0.00 in0.0 mm 0.00 in0.0 mm 0.00 in0.0 mm
02:15 AM 26.8°F-2.9°C 21.2°F-6.0°C 83% 4.0 mph NW6.4 kmh NW 7.0 mph11.3 kmh 30.38 in1028.8 mb 0.00 in0.0 mm 0.00 in0.0 mm 0.00 in0.0 mm
02:17 AM 26.8°F-2.9°C 21.2°F-6.0°C 83% 5.0 mph NW8.0 kmh NW 7.0 mph11.3 kmh 30.39 in1029.1 mb 0.00 in0.0 mm 0.00 in0.0 mm 0.00 in0.0 mm
02:19 AM 26.7°F-2.9°C 21.1°F-6.1°C 83% 4.0 mph N6.4 kmh N 7.0 mph11.3 kmh 30.39 in1029.1 mb 0.00 in0.0 mm 0.00 in0.0 mm 0.00 in0.0 mm
02:21 AM 26.7°F-2.9°C 21.1°F-6.1°C 83% 3.0 mph NW4.8 kmh NW 7.0 mph11.3 kmh 30.38 in1028.8 mb 0.00 in0.0 mm 0.00 in0.0 mm 0.00 in0.0 mm
02:23 AM 26.7°F-2.9°C 21.1°F-6.1°C 83% 3.0 mph NNW4.8 kmh NNW 7.0 mph11.3 kmh 30.39 in1029.1 mb 0.00 in0.0 mm 0.00 in0.0 mm 0.00 in0.0 mm
02:25 AM 26.7°F-2.9°C 21.1°F-6.1°C 83% 2.0 mph NNW3.2 kmh NNW 7.0 mph11.3 kmh 30.39 in1029.1 mb 0.00 in0.0 mm 0.00 in0.0 mm 0.00 in0.0 mm
02:27 AM 26.7°F-2.9°C 21.4°F-5.9°C 84% 3.0 mph N4.8 kmh N 7.0 mph11.3 kmh 30.38 in1028.8 mb 0.00 in0.0 mm 0.00 in0.0 mm 0.00 in0.0 mm
02:29 AM 26.7°F-2.9°C 21.1°F-6.1°C 83% 3.0 mph NW4.8 kmh NW 5.0 mph8.0 kmh 30.38 in1028.8 mb 0.00 in0.0 mm 0.00 in0.0 mm 0.00 in0.0 mm
02:31 AM 26.7°F-2.9°C 21.4°F-5.9°C 84% 2.0 mph NW3.2 kmh NW 5.0 mph8.0 kmh 30.38 in1028.8 mb 0.00 in0.0 mm 0.00 in0.0 mm 0.00 in0.0 mm
02:33 AM 26.7°F-2.9°C 21.4°F-5.9°C 84% 2.0 mph NNW3.2 kmh NNW 5.0 mph8.0 kmh 30.38 in1028.8 mb 0.00 in0.0 mm 0.00 in0.0 mm 0.00 in0.0 mm
02:35 AM 26.7°F-2.9°C 21.4°F-5.9°C 84% 1.0 mph N1.6 kmh N 5.0 mph8.0 kmh 30.39 in1029.1 mb 0.00 in0.0 mm 0.00 in0.0 mm 0.00 in0.0 mm
02:37 AM 26.6°F-3.0°C 21.0°F-6.1°C 83% 2.0 mph NNW3.2 kmh NNW 5.0 mph8.0 kmh 30.39 in1029.1 mb 0.00 in0.0 mm 0.00 in0.0 mm 0.00 in0.0 mm
02:39 AM 26.6°F-3.0°C 21.0°F-6.1°C 83% 4.0 mph N6.4 kmh N 4.0 mph6.4 kmh 30.39 in1029.1 mb 0.00 in0.0 mm 0.00 in0.0 mm 0.00 in0.0 mm
02:41 AM 26.5°F-3.1°C 20.9°F-6.2°C 83% 5.0 mph N8.0 kmh N 8.0 mph12.9 kmh 30.39 in1029.1 mb 0.00 in0.0 mm 0.00 in0.0 mm 0.00 in0.0 mm
02:43 AM 26.5°F-3.1°C 20.9°F-6.2°C 83% 2.0 mph N3.2 kmh N 8.0 mph12.9 kmh 30.38 in1028.8 mb 0.00 in0.0 mm 0.00 in0.0 mm 0.00 in0.0 mm
02:45 AM 26.5°F-3.1°C 20.9°F-6.2°C 83% 2.0 mph NNW3.2 kmh NNW 8.0 mph12.9 kmh 30.38 in1028.8 mb 0.00 in0.0 mm 0.00 in0.0 mm 0.00 in0.0 mm
02:47 AM 26.5°F-3.1°C 20.9°F-6.2°C 83% 2.0 mph NW3.2 kmh NW 8.0 mph12.9 kmh 30.38 in1028.8 mb 0.00 in0.0 mm 0.00 in0.0 mm 0.00 in0.0 mm
02:49 AM 26.4°F-3.1°C 20.8°F-6.2°C 83% 1.0 mph NNW1.6 kmh NNW 8.0 mph12.9 kmh 30.38 in1028.8 mb 0.00 in0.0 mm 0.00 in0.0 mm 0.00 in0.0 mm
02:51 AM 26.4°F-3.1°C 20.8°F-6.2°C 83% 2.0 mph N3.2 kmh N 8.0 mph12.9 kmh 30.39 in1029.1 mb 0.00 in0.0 mm 0.00 in0.0 mm 0.00 in0.0 mm
02:53 AM 26.4°F-3.1°C 21.1°F-6.1°C 84% 4.0 mph NE6.4 kmh NE 8.0 mph12.9 kmh 30.39 in1029.1 mb 0.00 in0.0 mm 0.00 in0.0 mm 0.00 in0.0 mm
02:55 AM 26.4°F-3.1°C 20.8°F-6.2°C 83% 4.0 mph NNW6.4 kmh NNW 8.0 mph12.9 kmh 30.39 in1029.1 mb 0.00 in0.0 mm 0.00 in0.0 mm 0.00 in0.0 mm
02:57 AM 26.3°F-3.2°C 20.7°F-6.3°C 83% 3.0 mph NW4.8 kmh NW 8.0 mph12.9 kmh 30.39 in1029.1 mb 0.00 in0.0 mm 0.00 in0.0 mm 0.00 in0.0 mm
02:59 AM 26.3°F-3.2°C 20.7°F-6.3°C 83% 2.0 mph 3.2 kmh 8.0 mph12.9 kmh 30.39 in1029.1 mb 0.00 in0.0 mm 0.00 in0.0 mm 0.00 in0.0 mm
03:01 AM 26.3°F-3.2°C 20.7°F-6.3°C 83% 5.0 mph NW8.0 kmh NW 7.0 mph11.3 kmh 30.39 in1029.1 mb 0.00 in0.0 mm 0.00 in0.0 mm 0.00 in0.0 mm
03:03 AM 26.3°F-3.2°C 20.7°F-6.3°C 83% 2.0 mph N3.2 kmh N 8.0 mph12.9 kmh 30.39 in1029.1 mb 0.00 in0.0 mm 0.00 in0.0 mm 0.00 in0.0 mm
03:05 AM 26.2°F-3.2°C 20.6°F-6.3°C 83% 3.0 mph N4.8 kmh N 8.0 mph12.9 kmh 30.39 in1029.1 mb 0.00 in0.0 mm 0.00 in0.0 mm 0.00 in0.0 mm
03:07 AM 26.2°F-3.2°C 20.6°F-6.3°C 83% 3.0 mph NW4.8 kmh NW 8.0 mph12.9 kmh 30.39 in1029.1 mb 0.00 in0.0 mm 0.00 in0.0 mm 0.00 in0.0 mm
03:09 AM 26.2°F-3.2°C 20.9°F-6.2°C 84% 2.0 mph N3.2 kmh N 8.0 mph12.9 kmh 30.39 in1029.1 mb 0.00 in0.0 mm 0.00 in0.0 mm 0.00 in0.0 mm
03:11 AM 26.2°F-3.2°C 20.9°F-6.2°C 84% 7.0 mph NNE11.3 kmh NNE 8.0 mph12.9 kmh 30.40 in1029.5 mb 0.00 in0.0 mm 0.00 in0.0 mm 0.00 in0.0 mm
03:13 AM 26.2°F-3.2°C 20.9°F-6.2°C 84% 3.0 mph NNW4.8 kmh NNW 8.0 mph12.9 kmh 30.40 in1029.5 mb 0.00 in0.0 mm 0.00 in0.0 mm 0.00 in0.0 mm
03:15 AM 26.2°F-3.2°C 20.9°F-6.2°C 84% 4.0 mph NW6.4 kmh NW 8.0 mph12.9 kmh 30.40 in1029.5 mb 0.00 in0.0 mm 0.00 in0.0 mm 0.00 in0.0 mm
03:17 AM 26.2°F-3.2°C 20.9°F-6.2°C 84% 5.0 mph N8.0 kmh N 8.0 mph12.9 kmh 30.40 in1029.5 mb 0.00 in0.0 mm 0.00 in0.0 mm 0.00 in0.0 mm
03:19 AM 26.1°F-3.3°C 20.5°F-6.4°C 83% 3.0 mph NNW4.8 kmh NNW 8.0 mph12.9 kmh 30.40 in1029.5 mb 0.00 in0.0 mm 0.00 in0.0 mm 0.00 in0.0 mm
03:21 AM 26.1°F-3.3°C 20.5°F-6.4°C 83% 2.0 mph NNE3.2 kmh NNE 8.0 mph12.9 kmh 30.40 in1029.5 mb 0.00 in0.0 mm 0.00 in0.0 mm 0.00 in0.0 mm
03:23 AM 26.1°F-3.3°C 20.5°F-6.4°C 83% 3.0 mph NW4.8 kmh NW 8.0 mph12.9 kmh 30.40 in1029.5 mb 0.00 in0.0 mm 0.00 in0.0 mm 0.00 in0.0 mm
03:25 AM 26.1°F-3.3°C 20.5°F-6.4°C 83% 3.0 mph NNE4.8 kmh NNE 8.0 mph12.9 kmh 30.40 in1029.5 mb 0.00 in0.0 mm 0.00 in0.0 mm 0.00 in0.0 mm
03:27 AM 26.1°F-3.3°C 20.5°F-6.4°C 83% 2.0 mph NW3.2 kmh NW 8.0 mph12.9 kmh 30.40 in1029.5 mb 0.00 in0.0 mm 0.00 in0.0 mm 0.00 in0.0 mm
03:29 AM 26.1°F-3.3°C 20.8°F-6.2°C 84% 4.0 mph NNW6.4 kmh NNW 8.0 mph12.9 kmh 30.40 in1029.5 mb 0.00 in0.0 mm 0.00 in0.0 mm 0.00 in0.0 mm
03:31 AM 26.1°F-3.3°C 20.8°F-6.2°C 84% 4.0 mph NNW6.4 kmh NNW 8.0 mph12.9 kmh 30.41 in1029.8 mb 0.00 in0.0 mm 0.00 in0.0 mm 0.00 in0.0 mm
03:33 AM 26.1°F-3.3°C 20.8°F-6.2°C 84% 4.0 mph NNW6.4 kmh NNW 6.0 mph9.7 kmh 30.41 in1029.8 mb 0.00 in0.0 mm 0.00 in0.0 mm 0.00 in0.0 mm
03:35 AM 26.1°F-3.3°C 20.8°F-6.2°C 84% 3.0 mph NW4.8 kmh NW 6.0 mph9.7 kmh 30.41 in1029.8 mb 0.00 in0.0 mm 0.00 in0.0 mm 0.00 in0.0 mm
03:37 AM 26.0°F-3.3°C 20.7°F-6.3°C 84% 3.0 mph N4.8 kmh N 6.0 mph9.7 kmh 30.41 in1029.8 mb 0.00 in0.0 mm 0.00 in0.0 mm 0.00 in0.0 mm
03:39 AM 26.0°F-3.3°C 20.7°F-6.3°C 84% 4.0 mph NW6.4 kmh NW 6.0 mph9.7 kmh 30.41 in1029.8 mb 0.00 in0.0 mm 0.00 in0.0 mm 0.00 in0.0 mm
03:41 AM 26.0°F-3.3°C 20.4°F-6.4°C 83% 5.0 mph NNE8.0 kmh NNE 6.0 mph9.7 kmh 30.41 in1029.8 mb 0.00 in0.0 mm 0.00 in0.0 mm 0.00 in0.0 mm
03:43 AM 26.0°F-3.3°C 20.4°F-6.4°C 83% 9.0 mph N14.5 kmh N 9.0 mph14.5 kmh 30.41 in1029.8 mb 0.00 in0.0 mm 0.00 in0.0 mm 0.00 in0.0 mm
03:45 AM 26.0°F-3.3°C 20.4°F-6.4°C 83% 5.0 mph NW8.0 kmh NW 9.0 mph14.5 kmh 30.41 in1029.8 mb 0.00 in0.0 mm 0.00 in0.0 mm 0.00 in0.0 mm
03:47 AM 26.0°F-3.3°C 20.7°F-6.3°C 84% 3.0 mph 4.8 kmh 9.0 mph14.5 kmh 30.41 in1029.8 mb 0.00 in0.0 mm 0.00 in0.0 mm 0.00 in0.0 mm
03:49 AM 26.0°F-3.3°C 20.7°F-6.3°C 84% 3.0 mph N4.8 kmh N 9.0 mph14.5 kmh 30.41 in1029.8 mb 0.00 in0.0 mm 0.00 in0.0 mm 0.00 in0.0 mm
03:51 AM 26.0°F-3.3°C 20.4°F-6.4°C 83% 3.0 mph NNW4.8 kmh NNW 9.0 mph14.5 kmh 30.41 in1029.8 mb 0.00 in0.0 mm 0.00 in0.0 mm 0.00 in0.0 mm
03:53 AM 26.0°F-3.3°C 20.4°F-6.4°C 83% 2.0 mph N3.2 kmh N 9.0 mph14.5 kmh 30.41 in1029.8 mb 0.00 in0.0 mm 0.00 in0.0 mm 0.00 in0.0 mm
03:55 AM 26.0°F-3.3°C 20.7°F-6.3°C 84% 2.0 mph N3.2 kmh N 9.0 mph14.5 kmh 30.41 in1029.8 mb 0.00 in0.0 mm 0.00 in0.0 mm 0.00 in0.0 mm
03:57 AM 25.9°F-3.4°C 20.6°F-6.3°C 84% 1.0 mph N1.6 kmh N 9.0 mph14.5 kmh 30.41 in1029.8 mb 0.00 in0.0 mm 0.00 in0.0 mm 0.00 in0.0 mm
03:59 AM 25.9°F-3.4°C 20.6°F-6.3°C 84% 3.0 mph NW4.8 kmh NW 9.0 mph14.5 kmh 30.41 in1029.8 mb 0.00 in0.0 mm 0.00 in0.0 mm 0.00 in0.0 mm
04:01 AM 25.9°F-3.4°C 20.6°F-6.3°C 84% 4.0 mph 6.4 kmh 9.0 mph14.5 kmh 30.42 in1030.1 mb 0.00 in0.0 mm 0.00 in0.0 mm 0.00 in0.0 mm
04:03 AM 25.9°F-3.4°C 20.3°F-6.5°C 83% 3.0 mph NNW4.8 kmh NNW 9.0 mph14.5 kmh 30.42 in1030.1 mb 0.00 in0.0 mm 0.00 in0.0 mm 0.00 in0.0 mm
04:05 AM 25.9°F-3.4°C 20.3°F-6.5°C 83% 3.0 mph NW4.8 kmh NW 6.0 mph9.7 kmh 30.42 in1030.1 mb 0.00 in0.0 mm 0.00 in0.0 mm 0.00 in0.0 mm
04:07 AM 25.9°F-3.4°C 20.3°F-6.5°C 83% 1.0 mph NW1.6 kmh NW 6.0 mph9.7 kmh 30.42 in1030.1 mb 0.00 in0.0 mm 0.00 in0.0 mm 0.00 in0.0 mm
04:09 AM 25.9°F-3.4°C 20.6°F-6.3°C 84% 2.0 mph NNW3.2 kmh NNW 6.0 mph9.7 kmh 30.42 in1030.1 mb 0.00 in0.0 mm 0.00 in0.0 mm 0.00 in0.0 mm
04:11 AM 25.9°F-3.4°C 20.6°F-6.3°C 84% 1.0 mph NNW1.6 kmh NNW 6.0 mph9.7 kmh 30.43 in1030.5 mb 0.00 in0.0 mm 0.00 in0.0 mm 0.00 in0.0 mm
04:13 AM 25.9°F-3.4°C 20.6°F-6.3°C 84% 2.0 mph NE3.2 kmh NE 6.0 mph9.7 kmh 30.43 in1030.5 mb 0.00 in0.0 mm 0.00 in0.0 mm 0.00 in0.0 mm
04:15 AM 25.9°F-3.4°C 20.6°F-6.3°C 84% 1.0 mph NW1.6 kmh NW 5.0 mph8.0 kmh 30.43 in1030.5 mb 0.00 in0.0 mm 0.00 in0.0 mm 0.00 in0.0 mm
04:17 AM 25.9°F-3.4°C 20.3°F-6.5°C 83% 2.0 mph N3.2 kmh N 5.0 mph8.0 kmh 30.43 in1030.5 mb 0.00 in0.0 mm 0.00 in0.0 mm 0.00 in0.0 mm
04:19 AM 25.9°F-3.4°C 20.6°F-6.3°C 84% 2.0 mph 3.2 kmh 5.0 mph8.0 kmh 30.43 in1030.5 mb 0.00 in0.0 mm 0.00 in0.0 mm 0.00 in0.0 mm
04:21 AM 25.9°F-3.4°C 20.6°F-6.3°C 84% 2.0 mph 3.2 kmh 5.0 mph8.0 kmh 30.43 in1030.5 mb 0.00 in0.0 mm 0.00 in0.0 mm 0.00 in0.0 mm
04:23 AM 25.9°F-3.4°C 20.6°F-6.3°C 84% 2.0 mph NE3.2 kmh NE 5.0 mph8.0 kmh 30.43 in1030.5 mb 0.00 in0.0 mm 0.00 in0.0 mm 0.00 in0.0 mm
04:25 AM 25.9°F-3.4°C 20.3°F-6.5°C 83% 2.0 mph NW3.2 kmh NW 4.0 mph6.4 kmh 30.43 in1030.5 mb 0.00 in0.0 mm 0.00 in0.0 mm 0.00 in0.0 mm
04:27 AM 25.9°F-3.4°C 20.3°F-6.5°C 83% 3.0 mph NW4.8 kmh NW 4.0 mph6.4 kmh 30.43 in1030.5 mb 0.00 in0.0 mm 0.00 in0.0 mm 0.00 in0.0 mm
04:29 AM 25.8°F-3.4°C 20.2°F-6.6°C 83% 2.0 mph N3.2 kmh N 5.0 mph8.0 kmh 30.43 in1030.5 mb 0.00 in0.0 mm 0.00 in0.0 mm 0.00 in0.0 mm
04:31 AM 25.8°F-3.4°C 20.2°F-6.6°C 83% 2.0 mph N3.2 kmh N 5.0 mph8.0 kmh 30.43 in1030.5 mb 0.00 in0.0 mm 0.00 in0.0 mm 0.00 in0.0 mm
04:33 AM 25.8°F-3.4°C 20.2°F-6.6°C 83% 1.0 mph NNE1.6 kmh NNE 5.0 mph8.0 kmh 30.43 in1030.5 mb 0.00 in0.0 mm 0.00 in0.0 mm 0.00 in0.0 mm
04:35 AM 25.8°F-3.4°C 20.2°F-6.6°C 83% 2.0 mph NNW3.2 kmh NNW 5.0 mph8.0 kmh 30.43 in1030.5 mb 0.00 in0.0 mm 0.00 in0.0 mm 0.00 in0.0 mm
04:37 AM 25.8°F-3.4°C 20.2°F-6.6°C 83% 2.0 mph N3.2 kmh N 5.0 mph8.0 kmh 30.43 in1030.5 mb 0.00 in0.0 mm 0.00 in0.0 mm 0.00 in0.0 mm
04:39 AM 25.8°F-3.4°C 20.2°F-6.6°C 83% 3.0 mph N4.8 kmh N 5.0 mph8.0 kmh 30.43 in1030.5 mb 0.00 in0.0 mm 0.00 in0.0 mm 0.00 in0.0 mm
04:41 AM 25.8°F-3.4°C 20.2°F-6.6°C 83% 1.0 mph N1.6 kmh N 5.0 mph8.0 kmh 30.44 in1030.8 mb 0.00 in0.0 mm 0.00 in0.0 mm 0.00 in0.0 mm
04:43 AM 25.7°F-3.5°C 20.1°F-6.6°C 83% 2.0 mph NNE3.2 kmh NNE 5.0 mph8.0 kmh 30.44 in1030.8 mb 0.00 in0.0 mm 0.00 in0.0 mm 0.00 in0.0 mm
04:45 AM 25.7°F-3.5°C 20.1°F-6.6°C 83% 1.0 mph N1.6 kmh N 5.0 mph8.0 kmh 30.43 in1030.5 mb 0.00 in0.0 mm 0.00 in0.0 mm 0.00 in0.0 mm
04:47 AM 25.7°F-3.5°C 20.1°F-6.6°C 83% 3.0 mph NNE4.8 kmh NNE 5.0 mph8.0 kmh 30.43 in1030.5 mb 0.00 in0.0 mm 0.00 in0.0 mm 0.00 in0.0 mm
04:49 AM 25.7°F-3.5°C 20.1°F-6.6°C 83% 3.0 mph NW4.8 kmh NW 5.0 mph8.0 kmh 30.43 in1030.5 mb 0.00 in0.0 mm 0.00 in0.0 mm 0.00 in0.0 mm
04:51 AM 25.6°F-3.6°C 20.0°F-6.7°C 83% 3.0 mph NNE4.8 kmh NNE 5.0 mph8.0 kmh 30.43 in1030.5 mb 0.00 in0.0 mm 0.00 in0.0 mm 0.00 in0.0 mm
04:53 AM 25.6°F-3.6°C 20.0°F-6.7°C 83% 3.0 mph NE4.8 kmh NE 5.0 mph8.0 kmh 30.43 in1030.5 mb 0.00 in0.0 mm 0.00 in0.0 mm 0.00 in0.0 mm
04:55 AM 25.5°F-3.6°C 19.9°F-6.7°C 83% 2.0 mph NE3.2 kmh NE 5.0 mph8.0 kmh 30.43 in1030.5 mb 0.00 in0.0 mm 0.00 in0.0 mm 0.00 in0.0 mm
04:57 AM 25.5°F-3.6°C 19.9°F-6.7°C 83% 2.0 mph N3.2 kmh N 5.0 mph8.0 kmh 30.44 in1030.8 mb 0.00 in0.0 mm 0.00 in0.0 mm 0.00 in0.0 mm
04:59 AM 25.4°F-3.7°C 19.8°F-6.8°C 83% 2.0 mph 3.2 kmh 5.0 mph8.0 kmh 30.44 in1030.8 mb 0.00 in0.0 mm 0.00 in0.0 mm 0.00 in0.0 mm
05:01 AM 25.4°F-3.7°C 19.8°F-6.8°C 83% 2.0 mph NE3.2 kmh NE 5.0 mph8.0 kmh 30.44 in1030.8 mb 0.00 in0.0 mm 0.00 in0.0 mm 0.00 in0.0 mm
05:03 AM 25.3°F-3.7°C 19.7°F-6.8°C 83% 2.0 mph NNW3.2 kmh NNW 5.0 mph8.0 kmh 30.44 in1030.8 mb 0.00 in0.0 mm 0.00 in0.0 mm 0.00 in0.0 mm
05:05 AM 25.3°F-3.7°C 19.7°F-6.8°C 83% 3.0 mph N4.8 kmh N 5.0 mph8.0 kmh 30.44 in1030.8 mb 0.00 in0.0 mm 0.00 in0.0 mm 0.00 in0.0 mm
05:07 AM 25.2°F-3.8°C 19.6°F-6.9°C 83% 2.0 mph NNE3.2 kmh NNE 5.0 mph8.0 kmh 30.44 in1030.8 mb 0.00 in0.0 mm 0.00 in0.0 mm 0.00 in0.0 mm
05:09 AM 25.2°F-3.8°C 19.6°F-6.9°C 83% 1.0 mph N1.6 kmh N 5.0 mph8.0 kmh 30.44 in1030.8 mb 0.00 in0.0 mm 0.00 in0.0 mm 0.00 in0.0 mm
05:11 AM 25.2°F-3.8°C 19.6°F-6.9°C 83% 1.0 mph N1.6 kmh N 5.0 mph8.0 kmh 30.45 in1031.2 mb 0.00 in0.0 mm 0.00 in0.0 mm 0.00 in0.0 mm
05:13 AM 25.1°F-3.8°C 19.5°F-6.9°C 83% 1.0 mph N1.6 kmh N 5.0 mph8.0 kmh 30.45 in1031.2 mb 0.00 in0.0 mm 0.00 in0.0 mm 0.00 in0.0 mm
05:15 AM 25.1°F-3.8°C 19.5°F-6.9°C 83% 1.0 mph N1.6 kmh N 5.0 mph8.0 kmh 30.45 in1031.2 mb 0.00 in0.0 mm 0.00 in0.0 mm 0.00 in0.0 mm
05:17 AM 25.0°F-3.9°C 19.7°F-6.8°C 84% 1.0 mph N1.6 kmh N 5.0 mph8.0 kmh 30.45 in1031.2 mb 0.00 in0.0 mm 0.00 in0.0 mm 0.00 in0.0 mm
05:19 AM 25.0°F-3.9°C 19.7°F-6.8°C 84% 2.0 mph 3.2 kmh 5.0 mph8.0 kmh 30.45 in1031.2 mb 0.00 in0.0 mm 0.00 in0.0 mm 0.00 in0.0 mm
05:21 AM 24.9°F-3.9°C 19.6°F-6.9°C 84% 1.0 mph 1.6 kmh 4.0 mph6.4 kmh 30.46 in1031.5 mb 0.00 in0.0 mm 0.00 in0.0 mm 0.00 in0.0 mm
05:23 AM 24.8°F-4.0°C 19.5°F-6.9°C 84% 1.0 mph 1.6 kmh 4.0 mph6.4 kmh 30.46 in1031.5 mb 0.00 in0.0 mm 0.00 in0.0 mm 0.00 in0.0 mm
05:25 AM 24.8°F-4.0°C 19.5°F-6.9°C 84% 2.0 mph 3.2 kmh 4.0 mph6.4 kmh 30.46 in1031.5 mb 0.00 in0.0 mm 0.00 in0.0 mm 0.00 in0.0 mm
05:27 AM 24.8°F-4.0°C 19.5°F-6.9°C 84% 1.0 mph N1.6 kmh N 4.0 mph6.4 kmh 30.46 in1031.5 mb 0.00 in0.0 mm 0.00 in0.0 mm 0.00 in0.0 mm
05:29 AM 24.7°F-4.1°C 19.4°F-7.0°C 84% 2.0 mph N3.2 kmh N 4.0 mph6.4 kmh 30.46 in1031.5 mb 0.00 in0.0 mm 0.00 in0.0 mm 0.00 in0.0 mm
05:31 AM 24.7°F-4.1°C 19.4°F-7.0°C 84% 2.0 mph N3.2 kmh N 4.0 mph6.4 kmh 30.46 in1031.5 mb 0.00 in0.0 mm 0.00 in0.0 mm 0.00 in0.0 mm
05:33 AM 24.7°F-4.1°C 19.4°F-7.0°C 84% 1.0 mph N1.6 kmh N 4.0 mph6.4 kmh 30.46 in1031.5 mb 0.00 in0.0 mm 0.00 in0.0 mm 0.00 in0.0 mm
05:35 AM 24.6°F-4.1°C 19.3°F-7.1°C 84% 2.0 mph N3.2 kmh N 4.0 mph6.4 kmh 30.46 in1031.5 mb 0.00 in0.0 mm 0.00 in0.0 mm 0.00 in0.0 mm
05:37 AM 24.7°F-4.1°C 19.4°F-7.0°C 84% 2.0 mph NE3.2 kmh NE 4.0 mph6.4 kmh 30.46 in1031.5 mb 0.00 in0.0 mm 0.00 in0.0 mm 0.00 in0.0 mm
05:39 AM 24.6°F-4.1°C 19.3°F-7.1°C 84% 1.0 mph N1.6 kmh N 4.0 mph6.4 kmh 30.46 in1031.5 mb 0.00 in0.0 mm 0.00 in0.0 mm 0.00 in0.0 mm
05:41 AM 24.6°F-4.1°C 19.3°F-7.1°C 84% 3.0 mph NE4.8 kmh NE 5.0 mph8.0 kmh 30.46 in1031.5 mb 0.00 in0.0 mm 0.00 in0.0 mm 0.00 in0.0 mm
05:43 AM 24.7°F-4.1°C 19.4°F-7.0°C 84% 1.0 mph N1.6 kmh N 5.0 mph8.0 kmh 30.47 in1031.8 mb 0.00 in0.0 mm 0.00 in0.0 mm 0.00 in0.0 mm
05:45 AM 24.7°F-4.1°C 19.7°F-6.8°C 85% 2.0 mph N3.2 kmh N 5.0 mph8.0 kmh 30.47 in1031.8 mb 0.00 in0.0 mm 0.00 in0.0 mm 0.00 in0.0 mm
05:47 AM 24.7°F-4.1°C 19.4°F-7.0°C 84% 1.0 mph N1.6 kmh N 5.0 mph8.0 kmh 30.47 in1031.8 mb 0.00 in0.0 mm 0.00 in0.0 mm 0.00 in0.0 mm
05:49 AM 24.7°F-4.1°C 19.4°F-7.0°C 84% 1.0 mph N1.6 kmh N 5.0 mph8.0 kmh 30.47 in1031.8 mb 0.00 in0.0 mm 0.00 in0.0 mm 0.00 in0.0 mm
05:51 AM 24.7°F-4.1°C 19.4°F-7.0°C 84% 3.0 mph NNW4.8 kmh NNW 5.0 mph8.0 kmh 30.47 in1031.8 mb 0.00 in0.0 mm 0.00 in0.0 mm 0.00 in0.0 mm
05:53 AM 24.7°F-4.1°C 19.4°F-7.0°C 84% Calm Calm 5.0 mph8.0 kmh 30.47 in1031.8 mb 0.00 in0.0 mm 0.00 in0.0 mm 0.00 in0.0 mm
05:55 AM 24.7°F-4.1°C 19.4°F-7.0°C 84% 1.0 mph NNE1.6 kmh NNE 5.0 mph8.0 kmh 30.47 in1031.8 mb 0.00 in0.0 mm 0.00 in0.0 mm 0.00 in0.0 mm
05:57 AM 24.6°F-4.1°C 19.3°F-7.1°C 84% 2.0 mph NNE3.2 kmh NNE 5.0 mph8.0 kmh 30.47 in1031.8 mb 0.00 in0.0 mm 0.00 in0.0 mm 0.00 in0.0 mm
05:59 AM 24.6°F-4.1°C 19.3°F-7.1°C 84% 1.0 mph N1.6 kmh N 5.0 mph8.0 kmh 30.47 in1031.8 mb 0.00 in0.0 mm 0.00 in0.0 mm 0.00 in0.0 mm
06:01 AM 24.6°F-4.1°C 19.3°F-7.1°C 84% 1.0 mph N1.6 kmh N 3.0 mph4.8 kmh 30.48 in1032.2 mb 0.00 in0.0 mm 0.00 in0.0 mm 0.00 in0.0 mm
06:03 AM 24.5°F-4.2°C 19.2°F-7.1°C 84% Calm Calm 3.0 mph4.8 kmh 30.48 in1032.2 mb 0.00 in0.0 mm 0.00 in0.0 mm 0.00 in0.0 mm
06:05 AM 24.5°F-4.2°C 19.2°F-7.1°C 84% 1.0 mph N1.6 kmh N 2.0 mph3.2 kmh 30.48 in1032.2 mb 0.00 in0.0 mm 0.00 in0.0 mm 0.00 in0.0 mm
06:07 AM 24.4°F-4.2°C 19.1°F-7.2°C 84% 3.0 mph NE4.8 kmh NE 3.0 mph4.8 kmh 30.48 in1032.2 mb 0.00 in0.0 mm 0.00 in0.0 mm 0.00 in0.0 mm
06:09 AM 24.4°F-4.2°C 19.4°F-7.0°C 85% 2.0 mph 3.2 kmh 4.0 mph6.4 kmh 30.48 in1032.2 mb 0.00 in0.0 mm 0.00 in0.0 mm 0.00 in0.0 mm
06:11 AM 24.3°F-4.3°C 19.3°F-7.1°C 85% 1.0 mph N1.6 kmh N 4.0 mph6.4 kmh 30.48 in1032.2 mb 0.00 in0.0 mm 0.00 in0.0 mm 0.00 in0.0 mm
06:13 AM 24.3°F-4.3°C 19.0°F-7.2°C 84% 1.0 mph NE1.6 kmh NE 4.0 mph6.4 kmh 30.48 in1032.2 mb 0.00 in0.0 mm 0.00 in0.0 mm 0.00 in0.0 mm
06:15 AM 24.3°F-4.3°C 19.3°F-7.1°C 85% 1.0 mph NE1.6 kmh NE 4.0 mph6.4 kmh 30.48 in1032.2 mb 0.00 in0.0 mm 0.00 in0.0 mm 0.00 in0.0 mm
06:17 AM 24.2°F-4.3°C 19.2°F-7.1°C 85% 1.0 mph 1.6 kmh 4.0 mph6.4 kmh 30.48 in1032.2 mb 0.00 in0.0 mm 0.00 in0.0 mm 0.00 in0.0 mm
06:19 AM 24.2°F-4.3°C 19.2°F-7.1°C 85% 1.0 mph 1.6 kmh 4.0 mph6.4 kmh 30.48 in1032.2 mb 0.00 in0.0 mm 0.00 in0.0 mm 0.00 in0.0 mm
06:21 AM 24.2°F-4.3°C 19.2°F-7.1°C 85% 3.0 mph NNE4.8 kmh NNE 4.0 mph6.4 kmh 30.48 in1032.2 mb 0.00 in0.0 mm 0.00 in0.0 mm 0.00 in0.0 mm
06:23 AM 24.2°F-4.3°C 19.2°F-7.1°C 85% 2.0 mph N3.2 kmh N 4.0 mph6.4 kmh 30.49 in1032.5 mb 0.00 in0.0 mm 0.00 in0.0 mm 0.00 in0.0 mm
06:25 AM 24.2°F-4.3°C 19.2°F-7.1°C 85% 2.0 mph N3.2 kmh N 4.0 mph6.4 kmh 30.50 in1032.8 mb 0.00 in0.0 mm 0.00 in0.0 mm 0.00 in0.0 mm
06:27 AM 24.2°F-4.3°C 19.2°F-7.1°C 85% 3.0 mph NW4.8 kmh NW 4.0 mph6.4 kmh 30.50 in1032.8 mb 0.00 in0.0 mm 0.00 in0.0 mm 0.00 in0.0 mm
06:29 AM 24.1°F-4.4°C 19.1°F-7.2°C 85% 1.0 mph NW1.6 kmh NW 4.0 mph6.4 kmh 30.50 in1032.8 mb 0.00 in0.0 mm 0.00 in0.0 mm 0.00 in0.0 mm
06:31 AM 24.2°F-4.3°C 19.2°F-7.1°C 85% Calm Calm 4.0 mph6.4 kmh 30.50 in1032.8 mb 0.00 in0.0 mm 0.00 in0.0 mm 0.00 in0.0 mm
06:33 AM 24.1°F-4.4°C 19.1°F-7.2°C 85% 2.0 mph N3.2 kmh N 4.0 mph6.4 kmh 30.50 in1032.8 mb 0.00 in0.0 mm 0.00 in0.0 mm 0.00 in0.0 mm
06:35 AM 24.1°F-4.4°C 19.1°F-7.2°C 85% 1.0 mph N1.6 kmh N 4.0 mph6.4 kmh 30.50 in1032.8 mb 0.00 in0.0 mm 0.00 in0.0 mm 0.00 in0.0 mm
06:37 AM 24.0°F-4.4°C 19.0°F-7.2°C 85% 2.0 mph N3.2 kmh N 4.0 mph6.4 kmh 30.50 in1032.8 mb 0.00 in0.0 mm 0.00 in0.0 mm 0.00 in0.0 mm
06:39 AM 24.0°F-4.4°C 19.0°F-7.2°C 85% 1.0 mph N1.6 kmh N 3.0 mph4.8 kmh 30.51 in1033.2 mb 0.00 in0.0 mm 0.00 in0.0 mm 0.00 in0.0 mm
06:41 AM 23.9°F-4.5°C 18.9°F-7.3°C 85% 1.0 mph N1.6 kmh N 3.0 mph4.8 kmh 30.51 in1033.2 mb 0.00 in0.0 mm 0.00 in0.0 mm 0.00 in0.0 mm
06:43 AM 23.9°F-4.5°C 18.9°F-7.3°C 85% 2.0 mph N3.2 kmh N 3.0 mph4.8 kmh 30.51 in1033.2 mb 0.00 in0.0 mm 0.00 in0.0 mm 0.00 in0.0 mm
06:45 AM 23.9°F-4.5°C 18.9°F-7.3°C 85% Calm Calm 3.0 mph4.8 kmh 30.51 in1033.2 mb 0.00 in0.0 mm 0.00 in0.0 mm 0.00 in0.0 mm
06:47 AM 23.8°F-4.6°C 18.8°F-7.3°C 85% 2.0 mph N3.2 kmh N 3.0 mph4.8 kmh 30.51 in1033.2 mb 0.00 in0.0 mm 0.00 in0.0 mm 0.00 in0.0 mm
06:49 AM 23.8°F-4.6°C 19.1°F-7.2°C 86% 3.0 mph N4.8 kmh N 6.0 mph9.7 kmh 30.51 in1033.2 mb 0.00 in0.0 mm 0.00 in0.0 mm 0.00 in0.0 mm
06:51 AM 23.8°F-4.6°C 19.1°F-7.2°C 86% 3.0 mph NNW4.8 kmh NNW 6.0 mph9.7 kmh 30.51 in1033.2 mb 0.00 in0.0 mm 0.00 in0.0 mm 0.00 in0.0 mm
06:53 AM 23.7°F-4.6°C 19.0°F-7.2°C 86% 2.0 mph NNW3.2 kmh NNW 6.0 mph9.7 kmh 30.52 in1033.5 mb 0.00 in0.0 mm 0.00 in0.0 mm 0.00 in0.0 mm
06:55 AM 23.7°F-4.6°C 18.7°F-7.4°C 85% 3.0 mph NNW4.8 kmh NNW 6.0 mph9.7 kmh 30.52 in1033.5 mb 0.00 in0.0 mm 0.00 in0.0 mm 0.00 in0.0 mm
06:57 AM 23.7°F-4.6°C 18.7°F-7.4°C 85% 1.0 mph NNW1.6 kmh NNW 6.0 mph9.7 kmh 30.52 in1033.5 mb 0.00 in0.0 mm 0.00 in0.0 mm 0.00 in0.0 mm
06:59 AM 23.7°F-4.6°C 18.7°F-7.4°C 85% 2.0 mph NNW3.2 kmh NNW 6.0 mph9.7 kmh 30.52 in1033.5 mb 0.00 in0.0 mm 0.00 in0.0 mm 0.00 in0.0 mm
07:01 AM 23.7°F-4.6°C 18.7°F-7.4°C 85% 4.0 mph NW6.4 kmh NW 6.0 mph9.7 kmh 30.52 in1033.5 mb 0.00 in0.0 mm 0.00 in0.0 mm 0.00 in0.0 mm
07:03 AM 23.7°F-4.6°C 18.7°F-7.4°C 85% 3.0 mph 4.8 kmh 8.0 mph12.9 kmh 30.52 in1033.5 mb 0.00 in0.0 mm 0.00 in0.0 mm 0.00 in0.0 mm
07:05 AM 23.8°F-4.6°C 18.8°F-7.3°C 85% 1.0 mph NW1.6 kmh NW 8.0 mph12.9 kmh 30.52 in1033.5 mb 0.00 in0.0 mm 0.00 in0.0 mm 0.00 in0.0 mm
07:07 AM 23.8°F-4.6°C 18.8°F-7.3°C 85% 1.0 mph NW1.6 kmh NW 8.0 mph12.9 kmh 30.52 in1033.5 mb 0.00 in0.0 mm 0.00 in0.0 mm 0.00 in0.0 mm
07:09 AM 23.8°F-4.6°C 18.8°F-7.3°C 85% 2.0 mph NNW3.2 kmh NNW 8.0 mph12.9 kmh 30.52 in1033.5 mb 0.00 in0.0 mm 0.00 in0.0 mm 0.00 in0.0 mm
07:11 AM 23.8°F-4.6°C 18.8°F-7.3°C 85% 1.0 mph NE1.6 kmh NE 8.0 mph12.9 kmh 30.53 in1033.9 mb 0.00 in0.0 mm 0.00 in0.0 mm 0.00 in0.0 mm
07:13 AM 23.7°F-4.6°C 18.7°F-7.4°C 85% 2.0 mph NW3.2 kmh NW 8.0 mph12.9 kmh 30.53 in1033.9 mb 0.00 in0.0 mm 0.00 in0.0 mm 0.00 in0.0 mm
07:15 AM 23.7°F-4.6°C 18.7°F-7.4°C 85% 2.0 mph NNW3.2 kmh NNW 8.0 mph12.9 kmh 30.53 in1033.9 mb 0.00 in0.0 mm 0.00 in0.0 mm 0.00 in0.0 mm
07:17 AM 23.7°F-4.6°C 18.7°F-7.4°C 85% 2.0 mph N3.2 kmh N 8.0 mph12.9 kmh 30.53 in1033.9 mb 0.00 in0.0 mm 0.00 in0.0 mm 0.00 in0.0 mm
07:19 AM 23.6°F-4.7°C 18.6°F-7.4°C 85% 2.0 mph N3.2 kmh N 8.0 mph12.9 kmh 30.53 in1033.9 mb 0.00 in0.0 mm 0.00 in0.0 mm 0.00 in0.0 mm
07:21 AM 23.6°F-4.7°C 18.6°F-7.4°C 85% 1.0 mph N1.6 kmh N 8.0 mph12.9 kmh 30.53 in1033.9 mb 0.00 in0.0 mm 0.00 in0.0 mm 0.00 in0.0 mm
07:23 AM 23.6°F-4.7°C 18.6°F-7.4°C 85% 2.0 mph N3.2 kmh N 4.0 mph6.4 kmh 30.54 in1034.2 mb 0.00 in0.0 mm 0.00 in0.0 mm 0.00 in0.0 mm
07:25 AM 23.6°F-4.7°C 18.6°F-7.4°C 85% 1.0 mph N1.6 kmh N 4.0 mph6.4 kmh 30.54 in1034.2 mb 0.00 in0.0 mm 0.00 in0.0 mm 0.00 in0.0 mm
07:27 AM 23.6°F-4.7°C 18.6°F-7.4°C 85% 2.0 mph N3.2 kmh N 4.0 mph6.4 kmh 30.54 in1034.2 mb 0.00 in0.0 mm 0.00 in0.0 mm 0.00 in0.0 mm
07:29 AM 23.5°F-4.7°C 18.5°F-7.5°C 85% 2.0 mph 3.2 kmh 4.0 mph6.4 kmh 30.54 in1034.2 mb 0.00 in0.0 mm 0.00 in0.0 mm 0.00 in0.0 mm
07:31 AM 23.5°F-4.7°C 18.5°F-7.5°C 85% Calm Calm 4.0 mph6.4 kmh 30.54 in1034.2 mb 0.00 in0.0 mm 0.00 in0.0 mm 0.00 in0.0 mm
07:33 AM 23.4°F-4.8°C 18.4°F-7.6°C 85% 1.0 mph 1.6 kmh 4.0 mph6.4 kmh 30.54 in1034.2 mb 0.00 in0.0 mm 0.00 in0.0 mm 0.00 in0.0 mm
07:35 AM 23.4°F-4.8°C 18.4°F-7.6°C 85% 1.0 mph N1.6 kmh N 4.0 mph6.4 kmh 30.55 in1034.5 mb 0.00 in0.0 mm 0.00 in0.0 mm 0.00 in0.0 mm
07:37 AM 23.4°F-4.8°C 18.4°F-7.6°C 85% 2.0 mph NNW3.2 kmh NNW 4.0 mph6.4 kmh 30.55 in1034.5 mb 0.00 in0.0 mm 0.00 in0.0 mm 0.00 in0.0 mm
07:39 AM 23.3°F-4.8°C 18.3°F-7.6°C 85% 1.0 mph NNW1.6 kmh NNW 4.0 mph6.4 kmh 30.55 in1034.5 mb 0.00 in0.0 mm 0.00 in0.0 mm 0.00 in0.0 mm
07:41 AM 23.3°F-4.8°C 18.3°F-7.6°C 85% 1.0 mph NNW1.6 kmh NNW 4.0 mph6.4 kmh 30.55 in1034.5 mb 0.00 in0.0 mm 0.00 in0.0 mm 0.00 in0.0 mm
07:43 AM 23.2°F-4.9°C 18.5°F-7.5°C 86% 2.0 mph 3.2 kmh 4.0 mph6.4 kmh 30.55 in1034.5 mb 0.00 in0.0 mm 0.00 in0.0 mm 0.00 in0.0 mm
07:45 AM 23.2°F-4.9°C 18.5°F-7.5°C 86% 1.0 mph 1.6 kmh 4.0 mph6.4 kmh 30.55 in1034.5 mb 0.00 in0.0 mm 0.00 in0.0 mm 0.00 in0.0 mm
07:47 AM 23.2°F-4.9°C 18.5°F-7.5°C 86% Calm Calm 4.0 mph6.4 kmh 30.55 in1034.5 mb 0.00 in0.0 mm 0.00 in0.0 mm 0.00 in0.0 mm
07:49 AM 23.2°F-4.9°C 18.5°F-7.5°C 86% 1.0 mph 1.6 kmh 4.0 mph6.4 kmh 30.55 in1034.5 mb 0.00 in0.0 mm 0.00 in0.0 mm 0.00 in0.0 mm
07:51 AM 23.2°F-4.9°C 18.5°F-7.5°C 86% Calm Calm 4.0 mph6.4 kmh 30.56 in1034.9 mb 0.00 in0.0 mm 0.00 in0.0 mm 0.00 in0.0 mm
07:53 AM 23.1°F-4.9°C 18.4°F-7.6°C 86% 1.0 mph 1.6 kmh 4.0 mph6.4 kmh 30.56 in1034.9 mb 0.00 in0.0 mm 0.00 in0.0 mm 0.00 in0.0 mm
07:55 AM 23.1°F-4.9°C 18.4°F-7.6°C 86% Calm Calm 4.0 mph6.4 kmh 30.57 in1035.2 mb 0.00 in0.0 mm 0.00 in0.0 mm 0.00 in0.0 mm
07:57 AM 23.1°F-4.9°C 18.4°F-7.6°C 86% 1.0 mph 1.6 kmh 4.0 mph6.4 kmh 30.57 in1035.2 mb 0.00 in0.0 mm 0.00 in0.0 mm 0.00 in0.0 mm
07:59 AM 23.0°F-5.0°C 18.3°F-7.6°C 86% Calm Calm 4.0 mph6.4 kmh 30.57 in1035.2 mb 0.00 in0.0 mm 0.00 in0.0 mm 0.00 in0.0 mm
08:01 AM 22.9°F-5.1°C 18.2°F-7.7°C 86% 1.0 mph 1.6 kmh 4.0 mph6.4 kmh 30.57 in1035.2 mb 0.00 in0.0 mm 0.00 in0.0 mm 0.00 in0.0 mm
08:03 AM 22.9°F-5.1°C 18.2°F-7.7°C 86% Calm Calm 2.0 mph3.2 kmh 30.57 in1035.2 mb 0.00 in0.0 mm 0.00 in0.0 mm 0.00 in0.0 mm
08:05 AM 22.8°F-5.1°C 18.1°F-7.7°C 86% Calm Calm -- 30.57 in1035.2 mb 0.00 in0.0 mm 0.00 in0.0 mm 0.00 in0.0 mm
08:07 AM 22.8°F-5.1°C 18.1°F-7.7°C 86% Calm Calm 1.0 mph1.6 kmh 30.57 in1035.2 mb 0.00 in0.0 mm 0.00 in0.0 mm 0.00 in0.0 mm
08:09 AM 22.7°F-5.2°C 18.0°F-7.8°C 86% Calm Calm 1.0 mph1.6 kmh 30.57 in1035.2 mb 0.00 in0.0 mm 0.00 in0.0 mm 0.00 in0.0 mm
08:11 AM 22.6°F-5.2°C 17.9°F-7.8°C 86% Calm Calm 1.0 mph1.6 kmh 30.57 in1035.2 mb 0.00 in0.0 mm 0.00 in0.0 mm 0.00 in0.0 mm
08:13 AM 22.6°F-5.2°C 17.9°F-7.8°C 86% 1.0 mph 1.6 kmh 1.0 mph1.6 kmh 30.58 in1035.6 mb 0.00 in0.0 mm 0.00 in0.0 mm 0.00 in0.0 mm
08:15 AM 22.6°F-5.2°C 18.2°F-7.7°C 87% Calm Calm 1.0 mph1.6 kmh 30.58 in1035.6 mb 0.00 in0.0 mm 0.00 in0.0 mm 0.00 in0.0 mm
08:17 AM 22.6°F-5.2°C 18.2°F-7.7°C 87% 1.0 mph N1.6 kmh N 2.0 mph3.2 kmh 30.58 in1035.6 mb 0.00 in0.0 mm 0.00 in0.0 mm 0.00 in0.0 mm
08:19 AM 22.6°F-5.2°C 18.2°F-7.7°C 87% 2.0 mph NE3.2 kmh NE 4.0 mph6.4 kmh 30.58 in1035.6 mb 0.00 in0.0 mm 0.00 in0.0 mm 0.00 in0.0 mm
08:21 AM 22.6°F-5.2°C 18.2°F-7.7°C 87% Calm Calm 4.0 mph6.4 kmh 30.58 in1035.6 mb 0.00 in0.0 mm 0.00 in0.0 mm 0.00 in0.0 mm
08:23 AM 22.7°F-5.2°C 18.3°F-7.6°C 87% Calm Calm 4.0 mph6.4 kmh 30.58 in1035.6 mb 0.00 in0.0 mm 0.00 in0.0 mm 0.00 in0.0 mm
08:25 AM 22.7°F-5.2°C 18.3°F-7.6°C 87% 1.0 mph NE1.6 kmh NE 4.0 mph6.4 kmh 30.58 in1035.6 mb 0.00 in0.0 mm 0.00 in0.0 mm 0.00 in0.0 mm
08:27 AM 22.9°F-5.1°C 18.5°F-7.5°C 87% 2.0 mph NE3.2 kmh NE 4.0 mph6.4 kmh 30.58 in1035.6 mb 0.00 in0.0 mm 0.00 in0.0 mm 0.00 in0.0 mm
08:29 AM 23.0°F-5.0°C 18.6°F-7.4°C 87% 2.0 mph NNE3.2 kmh NNE 4.0 mph6.4 kmh 30.58 in1035.6 mb 0.00 in0.0 mm 0.00 in0.0 mm 0.00 in0.0 mm
08:31 AM 23.1°F-4.9°C 18.4°F-7.6°C 86% 3.0 mph ENE4.8 kmh ENE 4.0 mph6.4 kmh 30.58 in1035.6 mb 0.00 in0.0 mm 0.00 in0.0 mm 0.00 in0.0 mm
08:33 AM 23.1°F-4.9°C 18.4°F-7.6°C 86% 2.0 mph NE3.2 kmh NE 4.0 mph6.4 kmh 30.58 in1035.6 mb 0.00 in0.0 mm 0.00 in0.0 mm 0.00 in0.0 mm
08:35 AM 23.3°F-4.8°C 18.3°F-7.6°C 85% 3.0 mph N4.8 kmh N 4.0 mph6.4 kmh 30.58 in1035.6 mb 0.00 in0.0 mm 0.00 in0.0 mm 0.00 in0.0 mm
08:37 AM 23.4°F-4.8°C 18.4°F-7.6°C 85% 1.0 mph N1.6 kmh N 4.0 mph6.4 kmh 30.58 in1035.6 mb 0.00 in0.0 mm 0.00 in0.0 mm 0.00 in0.0 mm
08:39 AM 23.5°F-4.7°C 18.5°F-7.5°C 85% 2.0 mph N3.2 kmh N 4.0 mph6.4 kmh 30.59 in1035.9 mb 0.00 in0.0 mm 0.00 in0.0 mm 0.00 in0.0 mm
08:41 AM 23.7°F-4.6°C 18.7°F-7.4°C 85% 2.0 mph N3.2 kmh N 4.0 mph6.4 kmh 30.58 in1035.6 mb 0.00 in0.0 mm 0.00 in0.0 mm 0.00 in0.0 mm
08:43 AM 23.9°F-4.5°C 18.9°F-7.3°C 85% 2.0 mph NNW3.2 kmh NNW 4.0 mph6.4 kmh 30.59 in1035.9 mb 0.00 in0.0 mm 0.00 in0.0 mm 0.00 in0.0 mm
08:45 AM 24.0°F-4.4°C 18.7°F-7.4°C 84% 2.0 mph NNW3.2 kmh NNW 4.0 mph6.4 kmh 30.59 in1035.9 mb 0.00 in0.0 mm 0.00 in0.0 mm 0.00 in0.0 mm
08:47 AM 24.2°F-4.3°C 18.9°F-7.3°C 84% 2.0 mph NNW3.2 kmh NNW 4.0 mph6.4 kmh 30.59 in1035.9 mb 0.00 in0.0 mm 0.00 in0.0 mm 0.00 in0.0 mm
08:49 AM 24.3°F-4.3°C 18.7°F-7.4°C 83% 2.0 mph N3.2 kmh N 4.0 mph6.4 kmh 30.59 in1035.9 mb 0.00 in0.0 mm 0.00 in0.0 mm 0.00 in0.0 mm
08:51 AM 24.4°F-4.2°C 18.8°F-7.3°C 83% 2.0 mph NE3.2 kmh NE 4.0 mph6.4 kmh 30.59 in1035.9 mb 0.00 in0.0 mm 0.00 in0.0 mm 0.00 in0.0 mm
08:53 AM 24.5°F-4.2°C 18.6°F-7.4°C 82% 2.0 mph N3.2 kmh N 4.0 mph6.4 kmh 30.59 in1035.9 mb 0.00 in0.0 mm 0.00 in0.0 mm 0.00 in0.0 mm
08:55 AM 24.6°F-4.1°C 18.7°F-7.4°C 82% 2.0 mph N3.2 kmh N 4.0 mph6.4 kmh 30.59 in1035.9 mb 0.00 in0.0 mm 0.00 in0.0 mm 0.00 in0.0 mm
08:57 AM 24.7°F-4.1°C 18.5°F-7.5°C 81% 1.0 mph N1.6 kmh N 4.0 mph6.4 kmh 30.59 in1035.9 mb 0.00 in0.0 mm 0.00 in0.0 mm 0.00 in0.0 mm
08:59 AM 24.8°F-4.0°C 18.6°F-7.4°C 81% 3.0 mph NE4.8 kmh NE 4.0 mph6.4 kmh 30.59 in1035.9 mb 0.00 in0.0 mm 0.00 in0.0 mm 0.00 in0.0 mm
09:01 AM 24.9°F-3.9°C 18.7°F-7.4°C 81% 2.0 mph N3.2 kmh N 4.0 mph6.4 kmh 30.59 in1035.9 mb 0.00 in0.0 mm 0.00 in0.0 mm 0.00 in0.0 mm
09:03 AM 25.0°F-3.9°C 18.8°F-7.3°C 81% 2.0 mph N3.2 kmh N 4.0 mph6.4 kmh 30.59 in1035.9 mb 0.00 in0.0 mm 0.00 in0.0 mm 0.00 in0.0 mm
09:05 AM 25.1°F-3.8°C 18.9°F-7.3°C 81% 2.0 mph NE3.2 kmh NE 4.0 mph6.4 kmh 30.60 in1036.2 mb 0.00 in0.0 mm 0.00 in0.0 mm 0.00 in0.0 mm
09:07 AM 25.2°F-3.8°C 18.7°F-7.4°C 80% 3.0 mph N4.8 kmh N 4.0 mph6.4 kmh 30.60 in1036.2 mb 0.00 in0.0 mm 0.00 in0.0 mm 0.00 in0.0 mm
09:09 AM 25.3°F-3.7°C 18.5°F-7.5°C 79% 3.0 mph NNE4.8 kmh NNE 4.0 mph6.4 kmh 30.60 in1036.2 mb 0.00 in0.0 mm 0.00 in0.0 mm 0.00 in0.0 mm
09:11 AM 25.4°F-3.7°C 18.6°F-7.4°C 79% 3.0 mph NE4.8 kmh NE 4.0 mph6.4 kmh 30.60 in1036.2 mb 0.00 in0.0 mm 0.00 in0.0 mm 0.00 in0.0 mm
09:13 AM 25.5°F-3.6°C 18.7°F-7.4°C 79% 1.0 mph NE1.6 kmh NE 4.0 mph6.4 kmh 30.60 in1036.2 mb 0.00 in0.0 mm 0.00 in0.0 mm 0.00 in0.0 mm
09:15 AM 25.6°F-3.6°C 18.8°F-7.3°C 79% 2.0 mph 3.2 kmh 4.0 mph6.4 kmh 30.60 in1036.2 mb 0.00 in0.0 mm 0.00 in0.0 mm 0.00 in0.0 mm
09:17 AM 25.7°F-3.5°C 18.9°F-7.3°C 79% 1.0 mph NW1.6 kmh NW 4.0 mph6.4 kmh 30.60 in1036.2 mb 0.00 in0.0 mm 0.00 in0.0 mm 0.00 in0.0 mm
09:19 AM 25.8°F-3.4°C 18.7°F-7.4°C 78% 2.0 mph NNW3.2 kmh NNW 4.0 mph6.4 kmh 30.60 in1036.2 mb 0.00 in0.0 mm 0.00 in0.0 mm 0.00 in0.0 mm
09:21 AM 26.0°F-3.3°C 19.2°F-7.1°C 79% 2.0 mph NE3.2 kmh NE 4.0 mph6.4 kmh 30.61 in1036.6 mb 0.00 in0.0 mm 0.00 in0.0 mm 0.00 in0.0 mm
09:23 AM 26.1°F-3.3°C 19.3°F-7.1°C 79% 3.0 mph NE4.8 kmh NE 4.0 mph6.4 kmh 30.61 in1036.6 mb 0.00 in0.0 mm 0.00 in0.0 mm 0.00 in0.0 mm
09:25 AM 26.2°F-3.2°C 19.1°F-7.2°C 78% 2.0 mph NE3.2 kmh NE 4.0 mph6.4 kmh 30.61 in1036.6 mb 0.00 in0.0 mm 0.00 in0.0 mm 0.00 in0.0 mm
09:27 AM 26.4°F-3.1°C 18.9°F-7.3°C 77% 2.0 mph NW3.2 kmh NW 4.0 mph6.4 kmh 30.61 in1036.6 mb 0.00 in0.0 mm 0.00 in0.0 mm 0.00 in0.0 mm
09:29 AM 26.5°F-3.1°C 19.0°F-7.2°C 77% 2.0 mph N3.2 kmh N 4.0 mph6.4 kmh 30.61 in1036.6 mb 0.00 in0.0 mm 0.00 in0.0 mm 0.00 in0.0 mm
09:31 AM 26.5°F-3.1°C 19.0°F-7.2°C 77% 2.0 mph N3.2 kmh N 4.0 mph6.4 kmh 30.61 in1036.6 mb 0.00 in0.0 mm 0.00 in0.0 mm 0.00 in0.0 mm
09:33 AM 26.6°F-3.0°C 19.1°F-7.2°C 77% 3.0 mph NNW4.8 kmh NNW 4.0 mph6.4 kmh 30.61 in1036.6 mb 0.00 in0.0 mm 0.00 in0.0 mm 0.00 in0.0 mm
09:35 AM 26.6°F-3.0°C 18.8°F-7.3°C 76% 1.0 mph N1.6 kmh N 4.0 mph6.4 kmh 30.61 in1036.6 mb 0.00 in0.0 mm 0.00 in0.0 mm 0.00 in0.0 mm
09:37 AM 26.6°F-3.0°C 18.8°F-7.3°C 76% 2.0 mph NNE3.2 kmh NNE 4.0 mph6.4 kmh 30.61 in1036.6 mb 0.00 in0.0 mm 0.00 in0.0 mm 0.00 in0.0 mm
09:39 AM 26.8°F-2.9°C 19.0°F-7.2°C 76% 3.0 mph NE4.8 kmh NE 4.0 mph6.4 kmh 30.61 in1036.6 mb 0.00 in0.0 mm 0.00 in0.0 mm 0.00 in0.0 mm
09:41 AM 26.8°F-2.9°C 19.0°F-7.2°C 76% 3.0 mph NE4.8 kmh NE 4.0 mph6.4 kmh 30.61 in1036.6 mb 0.00 in0.0 mm 0.00 in0.0 mm 0.00 in0.0 mm
09:43 AM 26.9°F-2.8°C 19.1°F-7.2°C 76% 3.0 mph NE4.8 kmh NE 4.0 mph6.4 kmh 30.61 in1036.6 mb 0.00 in0.0 mm 0.00 in0.0 mm 0.00 in0.0 mm
09:45 AM 27.0°F-2.8°C 19.2°F-7.1°C 76% 3.0 mph N4.8 kmh N 4.0 mph6.4 kmh 30.61 in1036.6 mb 0.00 in0.0 mm 0.00 in0.0 mm 0.00 in0.0 mm
09:47 AM 27.1°F-2.7°C 18.6°F-7.4°C 74% 4.0 mph NE6.4 kmh NE 10.0 mph16.1 kmh 30.61 in1036.6 mb 0.00 in0.0 mm 0.00 in0.0 mm 0.00 in0.0 mm
09:49 AM 26.9°F-2.8°C 18.1°F-7.7°C 73% 4.0 mph ENE6.4 kmh ENE 10.0 mph16.1 kmh 30.61 in1036.6 mb 0.00 in0.0 mm 0.00 in0.0 mm 0.00 in0.0 mm
09:51 AM 26.8°F-2.9°C 18.0°F-7.8°C 73% 1.0 mph NE1.6 kmh NE 10.0 mph16.1 kmh 30.61 in1036.6 mb 0.00 in0.0 mm 0.00 in0.0 mm 0.00 in0.0 mm
09:53 AM 26.8°F-2.9°C 18.3°F-7.6°C 74% 2.0 mph N3.2 kmh N 10.0 mph16.1 kmh 30.61 in1036.6 mb 0.00 in0.0 mm 0.00 in0.0 mm 0.00 in0.0 mm
09:55 AM 26.8°F-2.9°C 18.0°F-7.8°C 73% 4.0 mph NNE6.4 kmh NNE 10.0 mph16.1 kmh 30.61 in1036.6 mb 0.00 in0.0 mm 0.00 in0.0 mm 0.00 in0.0 mm
09:57 AM 26.9°F-2.8°C 17.8°F-7.9°C 72% 1.0 mph NE1.6 kmh NE 10.0 mph16.1 kmh 30.61 in1036.6 mb 0.00 in0.0 mm 0.00 in0.0 mm 0.00 in0.0 mm
09:59 AM 27.0°F-2.8°C 17.9°F-7.8°C 72% Calm Calm 10.0 mph16.1 kmh 30.61 in1036.6 mb 0.00 in0.0 mm 0.00 in0.0 mm 0.00 in0.0 mm
10:01 AM 27.3°F-2.6°C 18.5°F-7.5°C 73% 2.0 mph N3.2 kmh N 10.0 mph16.1 kmh 30.61 in1036.6 mb 0.00 in0.0 mm 0.00 in0.0 mm 0.00 in0.0 mm
10:03 AM 27.4°F-2.6°C 18.3°F-7.6°C 72% 3.0 mph N4.8 kmh N 10.0 mph16.1 kmh 30.61 in1036.6 mb 0.00 in0.0 mm 0.00 in0.0 mm 0.00 in0.0 mm
10:05 AM 27.6°F-2.4°C 18.4°F-7.6°C 72% 1.0 mph NNW1.6 kmh NNW 10.0 mph16.1 kmh 30.61 in1036.6 mb 0.00 in0.0 mm 0.00 in0.0 mm 0.00 in0.0 mm
10:07 AM 27.7°F-2.4°C 18.9°F-7.3°C 73% 6.0 mph ENE9.7 kmh ENE 7.0 mph11.3 kmh 30.62 in1036.9 mb 0.00 in0.0 mm 0.00 in0.0 mm 0.00 in0.0 mm
10:09 AM 27.7°F-2.4°C 18.5°F-7.5°C 72% 2.0 mph N3.2 kmh N 7.0 mph11.3 kmh 30.62 in1036.9 mb 0.00 in0.0 mm 0.00 in0.0 mm 0.00 in0.0 mm
10:11 AM 27.8°F-2.3°C 19.0°F-7.2°C 73% 2.0 mph E3.2 kmh E 7.0 mph11.3 kmh 30.62 in1036.9 mb 0.00 in0.0 mm 0.00 in0.0 mm 0.00 in0.0 mm
10:13 AM 27.9°F-2.3°C 18.7°F-7.4°C 72% 2.0 mph 3.2 kmh 7.0 mph11.3 kmh 30.62 in1036.9 mb 0.00 in0.0 mm 0.00 in0.0 mm 0.00 in0.0 mm
10:15 AM 28.1°F-2.2°C 18.9°F-7.3°C 72% 9.0 mph ENE14.5 kmh ENE 10.0 mph16.1 kmh 30.62 in1036.9 mb 0.00 in0.0 mm 0.00 in0.0 mm 0.00 in0.0 mm
10:17 AM 28.1°F-2.2°C 18.6°F-7.4°C 71% 3.0 mph NE4.8 kmh NE 10.0 mph16.1 kmh 30.62 in1036.9 mb 0.00 in0.0 mm 0.00 in0.0 mm 0.00 in0.0 mm
10:19 AM 28.1°F-2.2°C 18.6°F-7.4°C 71% 2.0 mph NE3.2 kmh NE 10.0 mph16.1 kmh 30.62 in1036.9 mb 0.00 in0.0 mm 0.00 in0.0 mm 0.00 in0.0 mm
10:21 AM 28.1°F-2.2°C 18.9°F-7.3°C 72% 3.0 mph N4.8 kmh N 10.0 mph16.1 kmh 30.62 in1036.9 mb 0.00 in0.0 mm 0.00 in0.0 mm 0.00 in0.0 mm
10:23 AM 28.1°F-2.2°C 18.9°F-7.3°C 72% 4.0 mph N6.4 kmh N 10.0 mph16.1 kmh 30.62 in1036.9 mb 0.00 in0.0 mm 0.00 in0.0 mm 0.00 in0.0 mm
10:25 AM 28.1°F-2.2°C 18.6°F-7.4°C 71% 2.0 mph NE3.2 kmh NE 10.0 mph16.1 kmh 30.62 in1036.9 mb 0.00 in0.0 mm 0.00 in0.0 mm 0.00 in0.0 mm
10:27 AM 28.1°F-2.2°C 18.2°F-7.7°C 70% 4.0 mph NE6.4 kmh NE 10.0 mph16.1 kmh 30.62 in1036.9 mb 0.00 in0.0 mm 0.00 in0.0 mm 0.00 in0.0 mm
10:29 AM 28.1°F-2.2°C 17.9°F-7.8°C 69% 2.0 mph NE3.2 kmh NE 10.0 mph16.1 kmh 30.62 in1036.9 mb 0.00 in0.0 mm 0.00 in0.0 mm 0.00 in0.0 mm
10:31 AM 28.0°F-2.2°C 18.1°F-7.7°C 70% 4.0 mph N6.4 kmh N 10.0 mph16.1 kmh 30.62 in1036.9 mb 0.00 in0.0 mm 0.00 in0.0 mm 0.00 in0.0 mm
10:33 AM 28.0°F-2.2°C 17.8°F-7.9°C 69% 3.0 mph NNW4.8 kmh NNW 10.0 mph16.1 kmh 30.63 in1037.3 mb 0.00 in0.0 mm 0.00 in0.0 mm 0.00 in0.0 mm
10:35 AM 28.1°F-2.2°C 18.2°F-7.7°C 70% 4.0 mph NNW6.4 kmh NNW 5.0 mph8.0 kmh 30.63 in1037.3 mb 0.00 in0.0 mm 0.00 in0.0 mm 0.00 in0.0 mm
10:37 AM 28.1°F-2.2°C 18.2°F-7.7°C 70% Calm Calm 5.0 mph8.0 kmh 30.63 in1037.3 mb 0.00 in0.0 mm 0.00 in0.0 mm 0.00 in0.0 mm
10:39 AM 28.2°F-2.1°C 18.3°F-7.6°C 70% 3.0 mph N4.8 kmh N 5.0 mph8.0 kmh 30.63 in1037.3 mb 0.00 in0.0 mm 0.00 in0.0 mm 0.00 in0.0 mm
10:41 AM 28.3°F-2.1°C 18.4°F-7.6°C 70% 3.0 mph NNE4.8 kmh NNE 5.0 mph8.0 kmh 30.63 in1037.3 mb 0.00 in0.0 mm 0.00 in0.0 mm 0.00 in0.0 mm
10:43 AM 28.4°F-2.0°C 18.2°F-7.7°C 69% 4.0 mph NE6.4 kmh NE 7.0 mph11.3 kmh 30.63 in1037.3 mb 0.00 in0.0 mm 0.00 in0.0 mm 0.00 in0.0 mm
10:45 AM 28.3°F-2.1°C 18.1°F-7.7°C 69% 2.0 mph ENE3.2 kmh ENE 7.0 mph11.3 kmh 30.63 in1037.3 mb 0.00 in0.0 mm 0.00 in0.0 mm 0.00 in0.0 mm
10:47 AM 28.4°F-2.0°C 18.2°F-7.7°C 69% 1.0 mph SE1.6 kmh SE 7.0 mph11.3 kmh 30.63 in1037.3 mb 0.00 in0.0 mm 0.00 in0.0 mm 0.00 in0.0 mm
10:49 AM 28.5°F-1.9°C 18.3°F-7.6°C 69% 1.0 mph NE1.6 kmh NE 7.0 mph11.3 kmh 30.63 in1037.3 mb 0.00 in0.0 mm 0.00 in0.0 mm 0.00 in0.0 mm
10:51 AM 28.7°F-1.8°C 18.4°F-7.6°C 69% 1.0 mph SSE1.6 kmh SSE 7.0 mph11.3 kmh 30.63 in1037.3 mb 0.00 in0.0 mm 0.00 in0.0 mm 0.00 in0.0 mm
10:53 AM 28.9°F-1.7°C 18.6°F-7.4°C 69% 3.0 mph NW4.8 kmh NW 7.0 mph11.3 kmh 30.64 in1037.6 mb 0.00 in0.0 mm 0.00 in0.0 mm 0.00 in0.0 mm
10:55 AM 29.2°F-1.6°C 18.9°F-7.3°C 69% 5.0 mph NE8.0 kmh NE 7.0 mph11.3 kmh 30.64 in1037.6 mb 0.00 in0.0 mm 0.00 in0.0 mm 0.00 in0.0 mm
10:57 AM 29.3°F-1.5°C 18.7°F-7.4°C 68% 2.0 mph NE3.2 kmh NE 7.0 mph11.3 kmh 30.64 in1037.6 mb 0.00 in0.0 mm 0.00 in0.0 mm 0.00 in0.0 mm
10:59 AM 29.5°F-1.4°C 19.2°F-7.1°C 69% 3.0 mph NE4.8 kmh NE 7.0 mph11.3 kmh 30.64 in1037.6 mb 0.00 in0.0 mm 0.00 in0.0 mm 0.00 in0.0 mm
11:01 AM 29.5°F-1.4°C 18.5°F-7.5°C 67% 1.0 mph NE1.6 kmh NE 7.0 mph11.3 kmh 30.64 in1037.6 mb 0.00 in0.0 mm 0.00 in0.0 mm 0.00 in0.0 mm
11:03 AM 29.5°F-1.4°C 18.5°F-7.5°C 67% Calm Calm 5.0 mph8.0 kmh 30.64 in1037.6 mb 0.00 in0.0 mm 0.00 in0.0 mm 0.00 in0.0 mm
11:05 AM 29.7°F-1.3°C 19.0°F-7.2°C 68% 2.0 mph ENE3.2 kmh ENE 5.0 mph8.0 kmh 30.64 in1037.6 mb 0.00 in0.0 mm 0.00 in0.0 mm 0.00 in0.0 mm
11:07 AM 29.9°F-1.2°C 18.9°F-7.3°C 67% 1.0 mph NE1.6 kmh NE 5.0 mph8.0 kmh 30.64 in1037.6 mb 0.00 in0.0 mm 0.00 in0.0 mm 0.00 in0.0 mm
11:09 AM 29.9°F-1.2°C 18.5°F-7.5°C 66% 3.0 mph NW4.8 kmh NW 5.0 mph8.0 kmh 30.64 in1037.6 mb 0.00 in0.0 mm 0.00 in0.0 mm 0.00 in0.0 mm
11:11 AM 30.0°F-1.1°C 18.6°F-7.4°C 66% 1.0 mph NW1.6 kmh NW 5.0 mph8.0 kmh 30.64 in1037.6 mb 0.00 in0.0 mm 0.00 in0.0 mm 0.00 in0.0 mm
11:13 AM 30.1°F-1.1°C 19.4°F-7.0°C 68% Calm Calm 5.0 mph8.0 kmh 30.64 in1037.6 mb 0.00 in0.0 mm 0.00 in0.0 mm 0.00 in0.0 mm
11:15 AM 30.3°F-0.9°C 19.2°F-7.1°C 67% 1.0 mph NE1.6 kmh NE 5.0 mph8.0 kmh 30.64 in1037.6 mb 0.00 in0.0 mm 0.00 in0.0 mm 0.00 in0.0 mm
11:17 AM 30.5°F-0.8°C 19.4°F-7.0°C 67% 2.0 mph N3.2 kmh N 5.0 mph8.0 kmh 30.64 in1037.6 mb 0.00 in0.0 mm 0.00 in0.0 mm 0.00 in0.0 mm
11:19 AM 30.5°F-0.8°C 19.1°F-7.2°C 66% 3.0 mph N4.8 kmh N 5.0 mph8.0 kmh 30.64 in1037.6 mb 0.00 in0.0 mm 0.00 in0.0 mm 0.00 in0.0 mm
11:21 AM 30.5°F-0.8°C 18.7°F-7.4°C 65% 2.0 mph NNW3.2 kmh NNW 5.0 mph8.0 kmh 30.64 in1037.6 mb 0.00 in0.0 mm 0.00 in0.0 mm 0.00 in0.0 mm
11:23 AM 30.5°F-0.8°C 19.1°F-7.2°C 66% 1.0 mph N1.6 kmh N 5.0 mph8.0 kmh 30.64 in1037.6 mb 0.00 in0.0 mm 0.00 in0.0 mm 0.00 in0.0 mm
11:25 AM 30.5°F-0.8°C 19.1°F-7.2°C 66% 3.0 mph NNW4.8 kmh NNW 5.0 mph8.0 kmh 30.65 in1037.9 mb 0.00 in0.0 mm 0.00 in0.0 mm 0.00 in0.0 mm
11:27 AM 30.6°F-0.8°C 19.2°F-7.1°C 66% 3.0 mph NE4.8 kmh NE 7.0 mph11.3 kmh 30.65 in1037.9 mb 0.00 in0.0 mm 0.00 in0.0 mm 0.00 in0.0 mm
11:29 AM 30.6°F-0.8°C 19.2°F-7.1°C 66% 3.0 mph NE4.8 kmh NE 7.0 mph11.3 kmh 30.65 in1037.9 mb 0.00 in0.0 mm 0.00 in0.0 mm 0.00 in0.0 mm
11:31 AM 30.6°F-0.8°C 19.5°F-6.9°C 67% 2.0 mph N3.2 kmh N 7.0 mph11.3 kmh 30.65 in1037.9 mb 0.00 in0.0 mm 0.00 in0.0 mm 0.00 in0.0 mm
11:33 AM 30.7°F-0.7°C 19.6°F-6.9°C 67% 6.0 mph NE9.7 kmh NE 7.0 mph11.3 kmh 30.65 in1037.9 mb 0.00 in0.0 mm 0.00 in0.0 mm 0.00 in0.0 mm
11:35 AM 30.8°F-0.7°C 20.4°F-6.4°C 69% 3.0 mph NW4.8 kmh NW 7.0 mph11.3 kmh 30.65 in1037.9 mb 0.00 in0.0 mm 0.00 in0.0 mm 0.00 in0.0 mm
11:37 AM 30.8°F-0.7°C 20.4°F-6.4°C 69% 3.0 mph N4.8 kmh N 7.0 mph11.3 kmh 30.65 in1037.9 mb 0.00 in0.0 mm 0.00 in0.0 mm 0.00 in0.0 mm
11:39 AM 30.9°F-0.6°C 20.5°F-6.4°C 69% 4.0 mph 6.4 kmh 7.0 mph11.3 kmh 30.65 in1037.9 mb 0.00 in0.0 mm 0.00 in0.0 mm 0.00 in0.0 mm
11:41 AM 31.0°F-0.6°C 20.3°F-6.5°C 68% 5.0 mph NE8.0 kmh NE 7.0 mph11.3 kmh 30.65 in1037.9 mb 0.00 in0.0 mm 0.00 in0.0 mm 0.00 in0.0 mm
11:43 AM 31.0°F-0.6°C 20.3°F-6.5°C 68% 4.0 mph N6.4 kmh N 7.0 mph11.3 kmh 30.65 in1037.9 mb 0.00 in0.0 mm 0.00 in0.0 mm 0.00 in0.0 mm
11:45 AM 30.9°F-0.6°C 19.8°F-6.8°C 67% 7.0 mph NW11.3 kmh NW 11.0 mph17.7 kmh 30.65 in1037.9 mb 0.00 in0.0 mm 0.00 in0.0 mm 0.00 in0.0 mm
11:47 AM 30.8°F-0.7°C 20.1°F-6.6°C 68% 3.0 mph NNW4.8 kmh NNW 11.0 mph17.7 kmh 30.66 in1038.3 mb 0.00 in0.0 mm 0.00 in0.0 mm 0.00 in0.0 mm
11:49 AM 30.8°F-0.7°C 19.3°F-7.1°C 66% 3.0 mph NNW4.8 kmh NNW 11.0 mph17.7 kmh 30.66 in1038.3 mb 0.00 in0.0 mm 0.00 in0.0 mm 0.00 in0.0 mm
11:51 AM 30.8°F-0.7°C 19.7°F-6.8°C 67% 2.0 mph NNW3.2 kmh NNW 11.0 mph17.7 kmh 30.66 in1038.3 mb 0.00 in0.0 mm 0.00 in0.0 mm 0.00 in0.0 mm
11:53 AM 30.9°F-0.6°C 19.8°F-6.8°C 67% 3.0 mph N4.8 kmh N 11.0 mph17.7 kmh 30.66 in1038.3 mb 0.00 in0.0 mm 0.00 in0.0 mm 0.00 in0.0 mm
11:55 AM 31.0°F-0.6°C 20.3°F-6.5°C 68% 2.0 mph N3.2 kmh N 11.0 mph17.7 kmh 30.65 in1037.9 mb 0.00 in0.0 mm 0.00 in0.0 mm 0.00 in0.0 mm
11:57 AM 31.1°F-0.5°C 20.0°F-6.7°C 67% 3.0 mph NNW4.8 kmh NNW 11.0 mph17.7 kmh 30.66 in1038.3 mb 0.00 in0.0 mm 0.00 in0.0 mm 0.00 in0.0 mm
11:59 AM 31.2°F-0.4°C 20.1°F-6.6°C 67% 3.0 mph NE4.8 kmh NE 11.0 mph17.7 kmh 30.65 in1037.9 mb 0.00 in0.0 mm 0.00 in0.0 mm 0.00 in0.0 mm
12:01 PM 31.3°F-0.4°C 19.8°F-6.8°C 66% 4.0 mph NNW6.4 kmh NNW 11.0 mph17.7 kmh 30.65 in1037.9 mb 0.00 in0.0 mm 0.00 in0.0 mm 0.00 in0.0 mm
12:03 PM 31.3°F-0.4°C 19.8°F-6.8°C 66% 5.0 mph NW8.0 kmh NW 11.0 mph17.7 kmh 30.65 in1037.9 mb 0.00 in0.0 mm 0.00 in0.0 mm 0.00 in0.0 mm
12:05 PM 31.3°F-0.4°C 19.8°F-6.8°C 66% 3.0 mph NNW4.8 kmh NNW 7.0 mph11.3 kmh 30.65 in1037.9 mb 0.00 in0.0 mm 0.00 in0.0 mm 0.00 in0.0 mm
12:07 PM 31.3°F-0.4°C 19.8°F-6.8°C 66% 6.0 mph NW9.7 kmh NW 7.0 mph11.3 kmh 30.65 in1037.9 mb 0.00 in0.0 mm 0.00 in0.0 mm 0.00 in0.0 mm
12:09 PM 31.2°F-0.4°C 19.3°F-7.1°C 65% 2.0 mph NNE3.2 kmh NNE 7.0 mph11.3 kmh 30.65 in1037.9 mb 0.00 in0.0 mm 0.00 in0.0 mm 0.00 in0.0 mm
12:11 PM 31.3°F-0.4°C 19.4°F-7.0°C 65% 4.0 mph NNW6.4 kmh NNW 7.0 mph11.3 kmh 30.65 in1037.9 mb 0.00 in0.0 mm 0.00 in0.0 mm 0.00 in0.0 mm
12:13 PM 31.3°F-0.4°C 19.0°F-7.2°C 64% 1.0 mph NW1.6 kmh NW 7.0 mph11.3 kmh 30.65 in1037.9 mb 0.00 in0.0 mm 0.00 in0.0 mm 0.00 in0.0 mm
12:15 PM 31.3°F-0.4°C 19.4°F-7.0°C 65% 3.0 mph N4.8 kmh N 7.0 mph11.3 kmh 30.65 in1037.9 mb 0.00 in0.0 mm 0.00 in0.0 mm 0.00 in0.0 mm
12:17 PM 31.3°F-0.4°C 19.0°F-7.2°C 64% 5.0 mph NW8.0 kmh NW 7.0 mph11.3 kmh 30.65 in1037.9 mb 0.00 in0.0 mm 0.00 in0.0 mm 0.00 in0.0 mm
12:19 PM 31.4°F-0.3°C 19.1°F-7.2°C 64% 3.0 mph NNW4.8 kmh NNW 7.0 mph11.3 kmh 30.65 in1037.9 mb 0.00 in0.0 mm 0.00 in0.0 mm 0.00 in0.0 mm
12:21 PM 31.4°F-0.3°C 19.5°F-6.9°C 65% 3.0 mph WNW4.8 kmh WNW 7.0 mph11.3 kmh 30.65 in1037.9 mb 0.00 in0.0 mm 0.00 in0.0 mm 0.00 in0.0 mm
12:23 PM 31.4°F-0.3°C 19.1°F-7.2°C 64% 2.0 mph WNW3.2 kmh WNW 7.0 mph11.3 kmh 30.65 in1037.9 mb 0.00 in0.0 mm 0.00 in0.0 mm 0.00 in0.0 mm
12:25 PM 31.4°F-0.3°C 19.1°F-7.2°C 64% 3.0 mph NW4.8 kmh NW 7.0 mph11.3 kmh 30.65 in1037.9 mb 0.00 in0.0 mm 0.00 in0.0 mm 0.00 in0.0 mm
12:27 PM 31.5°F-0.3°C 19.6°F-6.9°C 65% 3.0 mph N4.8 kmh N 7.0 mph11.3 kmh 30.65 in1037.9 mb 0.00 in0.0 mm 0.00 in0.0 mm 0.00 in0.0 mm
12:29 PM 31.6°F-0.2°C 19.7°F-6.8°C 65% 2.0 mph NNW3.2 kmh NNW 7.0 mph11.3 kmh 30.65 in1037.9 mb 0.00 in0.0 mm 0.00 in0.0 mm 0.00 in0.0 mm
12:31 PM 31.8°F-0.1°C 19.5°F-6.9°C 64% 3.0 mph NE4.8 kmh NE 5.0 mph8.0 kmh 30.65 in1037.9 mb 0.00 in0.0 mm 0.00 in0.0 mm 0.00 in0.0 mm
12:33 PM 31.9°F-0.1°C 19.2°F-7.1°C 63% 4.0 mph NNE6.4 kmh NNE 5.0 mph8.0 kmh 30.65 in1037.9 mb 0.00 in0.0 mm 0.00 in0.0 mm 0.00 in0.0 mm
12:35 PM 31.9°F-0.1°C 18.8°F-7.3°C 62% 1.0 mph NE1.6 kmh NE 5.0 mph8.0 kmh 30.65 in1037.9 mb 0.00 in0.0 mm 0.00 in0.0 mm 0.00 in0.0 mm
12:37 PM 32.0°F0.0°C 19.3°F-7.1°C 63% 3.0 mph NNW4.8 kmh NNW 5.0 mph8.0 kmh 30.65 in1037.9 mb 0.00 in0.0 mm 0.00 in0.0 mm 0.00 in0.0 mm
12:39 PM 32.1°F0.1°C 19.4°F-7.0°C 63% 3.0 mph WNW4.8 kmh WNW 5.0 mph8.0 kmh 30.65 in1037.9 mb 0.00 in0.0 mm 0.00 in0.0 mm 0.00 in0.0 mm
12:41 PM 32.1°F0.1°C 19.4°F-7.0°C 63% 2.0 mph NW3.2 kmh NW 7.0 mph11.3 kmh 30.65 in1037.9 mb 0.00 in0.0 mm 0.00 in0.0 mm 0.00 in0.0 mm
12:43 PM 32.1°F0.1°C 19.4°F-7.0°C 63% 2.0 mph WNW3.2 kmh WNW 7.0 mph11.3 kmh 30.65 in1037.9 mb 0.00 in0.0 mm 0.00 in0.0 mm 0.00 in0.0 mm
12:45 PM 32.2°F0.1°C 19.5°F-6.9°C 63% 2.0 mph NNW3.2 kmh NNW 7.0 mph11.3 kmh 30.65 in1037.9 mb 0.00 in0.0 mm 0.00 in0.0 mm 0.00 in0.0 mm
12:47 PM 32.3°F0.2°C 19.2°F-7.1°C 62% 2.0 mph NNW3.2 kmh NNW 8.0 mph12.9 kmh 30.65 in1037.9 mb 0.00 in0.0 mm 0.00 in0.0 mm 0.00 in0.0 mm
12:49 PM 32.3°F0.2°C 18.8°F-7.3°C 61% 2.0 mph NNE3.2 kmh NNE 8.0 mph12.9 kmh 30.65 in1037.9 mb 0.00 in0.0 mm 0.00 in0.0 mm 0.00 in0.0 mm
12:51 PM 32.4°F0.2°C 19.3°F-7.1°C 62% 3.0 mph NW4.8 kmh NW 8.0 mph12.9 kmh 30.65 in1037.9 mb 0.00 in0.0 mm 0.00 in0.0 mm 0.00 in0.0 mm
12:53 PM 32.5°F0.3°C 19.4°F-7.0°C 62% 4.0 mph NNW6.4 kmh NNW 8.0 mph12.9 kmh 30.65 in1037.9 mb 0.00 in0.0 mm 0.00 in0.0 mm 0.00 in0.0 mm
12:55 PM 32.5°F0.3°C 19.0°F-7.2°C 61% 3.0 mph NNE4.8 kmh NNE 8.0 mph12.9 kmh 30.65 in1037.9 mb 0.00 in0.0 mm 0.00 in0.0 mm 0.00 in0.0 mm
12:57 PM 32.6°F0.3°C 19.1°F-7.2°C 61% 3.0 mph 4.8 kmh 8.0 mph12.9 kmh 30.65 in1037.9 mb 0.00 in0.0 mm 0.00 in0.0 mm 0.00 in0.0 mm
12:59 PM 32.6°F0.3°C 19.1°F-7.2°C 61% 2.0 mph NE3.2 kmh NE 8.0 mph12.9 kmh 30.65 in1037.9 mb 0.00 in0.0 mm 0.00 in0.0 mm 0.00 in0.0 mm
01:01 PM 32.7°F0.4°C 19.6°F-6.9°C 62% 3.0 mph NNW4.8 kmh NNW 8.0 mph12.9 kmh 30.64 in1037.6 mb 0.00 in0.0 mm 0.00 in0.0 mm 0.00 in0.0 mm
01:03 PM 32.7°F0.4°C 18.8°F-7.3°C 60% 2.0 mph ENE3.2 kmh ENE 8.0 mph12.9 kmh 30.64 in1037.6 mb 0.00 in0.0 mm 0.00 in0.0 mm 0.00 in0.0 mm
01:05 PM 32.7°F0.4°C 18.3°F-7.6°C 59% Calm Calm 8.0 mph12.9 kmh 30.64 in1037.6 mb 0.00 in0.0 mm 0.00 in0.0 mm 0.00 in0.0 mm
01:07 PM 32.7°F0.4°C 18.3°F-7.6°C 59% 1.0 mph NNW1.6 kmh NNW 5.0 mph8.0 kmh 30.64 in1037.6 mb 0.00 in0.0 mm 0.00 in0.0 mm 0.00 in0.0 mm
01:09 PM 32.7°F0.4°C 18.8°F-7.3°C 60% 4.0 mph NE6.4 kmh NE 5.0 mph8.0 kmh 30.64 in1037.6 mb 0.00 in0.0 mm 0.00 in0.0 mm 0.00 in0.0 mm
01:11 PM 32.7°F0.4°C 18.3°F-7.6°C 59% 2.0 mph E3.2 kmh E 5.0 mph8.0 kmh 30.64 in1037.6 mb 0.00 in0.0 mm 0.00 in0.0 mm 0.00 in0.0 mm
01:13 PM 32.6°F0.3°C 18.2°F-7.7°C 59% 3.0 mph NNW4.8 kmh NNW 5.0 mph8.0 kmh 30.64 in1037.6 mb 0.00 in0.0 mm 0.00 in0.0 mm 0.00 in0.0 mm
01:15 PM 32.7°F0.4°C 18.3°F-7.6°C 59% 3.0 mph NE4.8 kmh NE 5.0 mph8.0 kmh 30.64 in1037.6 mb 0.00 in0.0 mm 0.00 in0.0 mm 0.00 in0.0 mm
01:17 PM 32.8°F0.4°C 18.9°F-7.3°C 60% 3.0 mph NE4.8 kmh NE 5.0 mph8.0 kmh 30.64 in1037.6 mb 0.00 in0.0 mm 0.00 in0.0 mm 0.00 in0.0 mm
01:19 PM 32.8°F0.4°C 18.4°F-7.6°C 59% 3.0 mph NNE4.8 kmh NNE 5.0 mph8.0 kmh 30.64 in1037.6 mb 0.00 in0.0 mm 0.00 in0.0 mm 0.00 in0.0 mm
01:21 PM 32.8°F0.4°C 18.4°F-7.6°C 59% 1.0 mph NNE1.6 kmh NNE 5.0 mph8.0 kmh 30.64 in1037.6 mb 0.00 in0.0 mm 0.00 in0.0 mm 0.00 in0.0 mm
01:23 PM 32.9°F0.5°C 18.5°F-7.5°C 59% 4.0 mph ENE6.4 kmh ENE 5.0 mph8.0 kmh 30.64 in1037.6 mb 0.00 in0.0 mm 0.00 in0.0 mm 0.00 in0.0 mm
01:25 PM 32.9°F0.5°C 18.5°F-7.5°C 59% 1.0 mph NE1.6 kmh NE 5.0 mph8.0 kmh 30.64 in1037.6 mb 0.00 in0.0 mm 0.00 in0.0 mm 0.00 in0.0 mm
01:27 PM 33.0°F0.6°C 18.6°F-7.4°C 59% 1.0 mph NE1.6 kmh NE 5.0 mph8.0 kmh 30.64 in1037.6 mb 0.00 in0.0 mm 0.00 in0.0 mm 0.00 in0.0 mm
01:29 PM 33.1°F0.6°C 19.1°F-7.2°C 60% 2.0 mph NW3.2 kmh NW 5.0 mph8.0 kmh 30.64 in1037.6 mb 0.00 in0.0 mm 0.00 in0.0 mm 0.00 in0.0 mm
01:31 PM 33.3°F0.7°C 19.7°F-6.8°C 61% 3.0 mph NE4.8 kmh NE 5.0 mph8.0 kmh 30.64 in1037.6 mb 0.00 in0.0 mm 0.00 in0.0 mm 0.00 in0.0 mm
01:33 PM 33.5°F0.8°C 20.3°F-6.5°C 62% 4.0 mph N6.4 kmh N 5.0 mph8.0 kmh 30.64 in1037.6 mb 0.00 in0.0 mm 0.00 in0.0 mm 0.00 in0.0 mm
01:35 PM 33.7°F0.9°C 20.1°F-6.6°C 61% 1.0 mph 1.6 kmh 5.0 mph8.0 kmh 30.64 in1037.6 mb 0.00 in0.0 mm 0.00 in0.0 mm 0.00 in0.0 mm
01:37 PM 33.7°F0.9°C 19.7°F-6.8°C 60% 3.0 mph N4.8 kmh N 5.0 mph8.0 kmh 30.64 in1037.6 mb 0.00 in0.0 mm 0.00 in0.0 mm 0.00 in0.0 mm
01:39 PM 33.8°F1.0°C 19.8°F-6.8°C 60% 2.0 mph NNW3.2 kmh NNW 5.0 mph8.0 kmh 30.64 in1037.6 mb 0.00 in0.0 mm 0.00 in0.0 mm 0.00 in0.0 mm
01:41 PM 33.8°F1.0°C 20.2°F-6.6°C 61% 3.0 mph NW4.8 kmh NW 5.0 mph8.0 kmh 30.64 in1037.6 mb 0.00 in0.0 mm 0.00 in0.0 mm 0.00 in0.0 mm
01:43 PM 33.8°F1.0°C 19.4°F-7.0°C 59% 2.0 mph NW3.2 kmh NW 5.0 mph8.0 kmh 30.65 in1037.9 mb 0.00 in0.0 mm 0.00 in0.0 mm 0.00 in0.0 mm
01:45 PM 33.8°F1.0°C 19.8°F-6.8°C 60% 2.0 mph NNW3.2 kmh NNW 5.0 mph8.0 kmh 30.65 in1037.9 mb 0.00 in0.0 mm 0.00 in0.0 mm 0.00 in0.0 mm
01:47 PM 33.9°F1.1°C 19.9°F-6.7°C 60% 4.0 mph NNW6.4 kmh NNW 5.0 mph8.0 kmh 30.65 in1037.9 mb 0.00 in0.0 mm 0.00 in0.0 mm 0.00 in0.0 mm
01:49 PM 33.9°F1.1°C 19.5°F-6.9°C 59% 5.0 mph NNW8.0 kmh NNW 5.0 mph8.0 kmh 30.65 in1037.9 mb 0.00 in0.0 mm 0.00 in0.0 mm 0.00 in0.0 mm
01:51 PM 33.9°F1.1°C 19.9°F-6.7°C 60% 2.0 mph NW3.2 kmh NW 6.0 mph9.7 kmh 30.65 in1037.9 mb 0.00 in0.0 mm 0.00 in0.0 mm 0.00 in0.0 mm
01:53 PM 33.9°F1.1°C 19.5°F-6.9°C 59% 4.0 mph NW6.4 kmh NW 6.0 mph9.7 kmh 30.65 in1037.9 mb 0.00 in0.0 mm 0.00 in0.0 mm 0.00 in0.0 mm
01:55 PM 33.9°F1.1°C 19.9°F-6.7°C 60% 3.0 mph NNW4.8 kmh NNW 7.0 mph11.3 kmh 30.65 in1037.9 mb 0.00 in0.0 mm 0.00 in0.0 mm 0.00 in0.0 mm
01:57 PM 33.9°F1.1°C 19.9°F-6.7°C 60% 4.0 mph NNW6.4 kmh NNW 7.0 mph11.3 kmh 30.65 in1037.9 mb 0.00 in0.0 mm 0.00 in0.0 mm 0.00 in0.0 mm
01:59 PM 33.9°F1.1°C 19.9°F-6.7°C 60% 5.0 mph NNW8.0 kmh NNW 7.0 mph11.3 kmh 30.65 in1037.9 mb 0.00 in0.0 mm 0.00 in0.0 mm 0.00 in0.0 mm
02:01 PM 34.0°F1.1°C 19.6°F-6.9°C 59% 2.0 mph NNW3.2 kmh NNW 7.0 mph11.3 kmh 30.65 in1037.9 mb 0.00 in0.0 mm 0.00 in0.0 mm 0.00 in0.0 mm
02:03 PM 34.1°F1.2°C 20.1°F-6.6°C 60% 1.0 mph NW1.6 kmh NW 7.0 mph11.3 kmh 30.65 in1037.9 mb 0.00 in0.0 mm 0.00 in0.0 mm 0.00 in0.0 mm
02:05 PM 34.2°F1.2°C 20.6°F-6.3°C 61% 2.0 mph N3.2 kmh N 7.0 mph11.3 kmh 30.65 in1037.9 mb 0.00 in0.0 mm 0.00 in0.0 mm 0.00 in0.0 mm
02:07 PM 34.4°F1.3°C 20.8°F-6.2°C 61% 3.0 mph N4.8 kmh N 7.0 mph11.3 kmh 30.65 in1037.9 mb 0.00 in0.0 mm 0.00 in0.0 mm 0.00 in0.0 mm
02:09 PM 34.5°F1.4°C 20.4°F-6.4°C 60% 2.0 mph NNW3.2 kmh NNW 7.0 mph11.3 kmh 30.65 in1037.9 mb 0.00 in0.0 mm 0.00 in0.0 mm 0.00 in0.0 mm
02:11 PM 34.6°F1.4°C 21.0°F-6.1°C 61% 2.0 mph N3.2 kmh N 7.0 mph11.3 kmh 30.65 in1037.9 mb 0.00 in0.0 mm 0.00 in0.0 mm 0.00 in0.0 mm
02:13 PM 34.6°F1.4°C 20.5°F-6.4°C 60% 3.0 mph NW4.8 kmh NW 7.0 mph11.3 kmh 30.65 in1037.9 mb 0.00 in0.0 mm 0.00 in0.0 mm 0.00 in0.0 mm
02:15 PM 34.6°F1.4°C 20.5°F-6.4°C 60% 3.0 mph NW4.8 kmh NW 7.0 mph11.3 kmh 30.65 in1037.9 mb 0.00 in0.0 mm 0.00 in0.0 mm 0.00 in0.0 mm
02:17 PM 34.5°F1.4°C 20.0°F-6.7°C 59% 3.0 mph NW4.8 kmh NW 7.0 mph11.3 kmh 30.65 in1037.9 mb 0.00 in0.0 mm 0.00 in0.0 mm 0.00 in0.0 mm
02:19 PM 34.4°F1.3°C 20.3°F-6.5°C 60% 4.0 mph NW6.4 kmh NW 8.0 mph12.9 kmh 30.65 in1037.9 mb 0.00 in0.0 mm 0.00 in0.0 mm 0.00 in0.0 mm
02:21 PM 34.5°F1.4°C 20.0°F-6.7°C 59% 3.0 mph NW4.8 kmh NW 8.0 mph12.9 kmh 30.65 in1037.9 mb 0.00 in0.0 mm 0.00 in0.0 mm 0.00 in0.0 mm
02:23 PM 34.4°F1.3°C 19.5°F-6.9°C 58% 4.0 mph NNW6.4 kmh NNW 8.0 mph12.9 kmh 30.65 in1037.9 mb 0.00 in0.0 mm 0.00 in0.0 mm 0.00 in0.0 mm
02:25 PM 34.4°F1.3°C 19.5°F-6.9°C 58% 7.0 mph WSW11.3 kmh WSW 8.0 mph12.9 kmh 30.65 in1037.9 mb 0.00 in0.0 mm 0.00 in0.0 mm 0.00 in0.0 mm
02:27 PM 34.5°F1.4°C 20.4°F-6.4°C 60% 3.0 mph NNW4.8 kmh NNW 8.0 mph12.9 kmh 30.65 in1037.9 mb 0.00 in0.0 mm 0.00 in0.0 mm 0.00 in0.0 mm
02:29 PM 34.6°F1.4°C 19.7°F-6.8°C 58% 2.0 mph NNW3.2 kmh NNW 8.0 mph12.9 kmh 30.66 in1038.3 mb 0.00 in0.0 mm 0.00 in0.0 mm 0.00 in0.0 mm
02:31 PM 34.6°F1.4°C 20.1°F-6.6°C 59% 4.0 mph NW6.4 kmh NW 8.0 mph12.9 kmh 30.66 in1038.3 mb 0.00 in0.0 mm 0.00 in0.0 mm 0.00 in0.0 mm
02:33 PM 34.6°F1.4°C 19.7°F-6.8°C 58% 4.0 mph NW6.4 kmh NW 8.0 mph12.9 kmh 30.66 in1038.3 mb 0.00 in0.0 mm 0.00 in0.0 mm 0.00 in0.0 mm
02:35 PM 34.6°F1.4°C 20.1°F-6.6°C 59% 3.0 mph NW4.8 kmh NW 8.0 mph12.9 kmh 30.66 in1038.3 mb 0.00 in0.0 mm 0.00 in0.0 mm 0.00 in0.0 mm
02:37 PM 34.6°F1.4°C 20.1°F-6.6°C 59% 2.0 mph NNW3.2 kmh NNW 8.0 mph12.9 kmh 30.66 in1038.3 mb 0.00 in0.0 mm 0.00 in0.0 mm 0.00 in0.0 mm
02:39 PM 34.7°F1.5°C 20.2°F-6.6°C 59% 2.0 mph NW3.2 kmh NW 5.0 mph8.0 kmh 30.66 in1038.3 mb 0.00 in0.0 mm 0.00 in0.0 mm 0.00 in0.0 mm
02:41 PM 34.8°F1.6°C 20.3°F-6.5°C 59% 3.0 mph NW4.8 kmh NW 5.0 mph8.0 kmh 30.66 in1038.3 mb 0.00 in0.0 mm 0.00 in0.0 mm 0.00 in0.0 mm
02:43 PM 34.8°F1.6°C 19.9°F-6.7°C 58% 3.0 mph NE4.8 kmh NE 5.0 mph8.0 kmh 30.66 in1038.3 mb 0.00 in0.0 mm 0.00 in0.0 mm 0.00 in0.0 mm
02:45 PM 34.8°F1.6°C 20.7°F-6.3°C 60% 3.0 mph N4.8 kmh N 5.0 mph8.0 kmh 30.66 in1038.3 mb 0.00 in0.0 mm 0.00 in0.0 mm 0.00 in0.0 mm
02:47 PM 34.9°F1.6°C 20.8°F-6.2°C 60% 3.0 mph NW4.8 kmh NW 5.0 mph8.0 kmh 30.66 in1038.3 mb 0.00 in0.0 mm 0.00 in0.0 mm 0.00 in0.0 mm
02:49 PM 34.9°F1.6°C 20.4°F-6.4°C 59% 3.0 mph NW4.8 kmh NW 5.0 mph8.0 kmh 30.66 in1038.3 mb 0.00 in0.0 mm 0.00 in0.0 mm 0.00 in0.0 mm
02:51 PM 35.0°F1.7°C 20.5°F-6.4°C 59% 4.0 mph NW6.4 kmh NW 7.0 mph11.3 kmh 30.66 in1038.3 mb 0.00 in0.0 mm 0.00 in0.0 mm 0.00 in0.0 mm
02:53 PM 34.9°F1.6°C 20.0°F-6.7°C 58% 2.0 mph ESE3.2 kmh ESE 7.0 mph11.3 kmh 30.66 in1038.3 mb 0.00 in0.0 mm 0.00 in0.0 mm 0.00 in0.0 mm
02:55 PM 34.9°F1.6°C 20.0°F-6.7°C 58% 2.0 mph NE3.2 kmh NE 7.0 mph11.3 kmh 30.66 in1038.3 mb 0.00 in0.0 mm 0.00 in0.0 mm 0.00 in0.0 mm
02:57 PM 34.9°F1.6°C 20.4°F-6.4°C 59% 3.0 mph NNE4.8 kmh NNE 7.0 mph11.3 kmh 30.66 in1038.3 mb 0.00 in0.0 mm 0.00 in0.0 mm 0.00 in0.0 mm
02:59 PM 34.9°F1.6°C 20.0°F-6.7°C 58% 4.0 mph 6.4 kmh 8.0 mph12.9 kmh 30.66 in1038.3 mb 0.00 in0.0 mm 0.00 in0.0 mm 0.00 in0.0 mm
03:01 PM 34.9°F1.6°C 20.8°F-6.2°C 60% 3.0 mph NE4.8 kmh NE 8.0 mph12.9 kmh 30.66 in1038.3 mb 0.00 in0.0 mm 0.00 in0.0 mm 0.00 in0.0 mm
03:03 PM 34.9°F1.6°C 20.0°F-6.7°C 58% 1.0 mph NE1.6 kmh NE 8.0 mph12.9 kmh 30.66 in1038.3 mb 0.00 in0.0 mm 0.00 in0.0 mm 0.00 in0.0 mm
03:05 PM 34.9°F1.6°C 20.0°F-6.7°C 58% 1.0 mph NNW1.6 kmh NNW 8.0 mph12.9 kmh 30.66 in1038.3 mb 0.00 in0.0 mm 0.00 in0.0 mm 0.00 in0.0 mm
03:07 PM 35.0°F1.7°C 19.6°F-6.9°C 57% 3.0 mph NNW4.8 kmh NNW 8.0 mph12.9 kmh 30.66 in1038.3 mb 0.00 in0.0 mm 0.00 in0.0 mm 0.00 in0.0 mm
03:09 PM 35.0°F1.7°C 20.5°F-6.4°C 59% 3.0 mph N4.8 kmh N 8.0 mph12.9 kmh 30.66 in1038.3 mb 0.00 in0.0 mm 0.00 in0.0 mm 0.00 in0.0 mm
03:11 PM 35.0°F1.7°C 19.6°F-6.9°C 57% 3.0 mph N4.8 kmh N 8.0 mph12.9 kmh 30.66 in1038.3 mb 0.00 in0.0 mm 0.00 in0.0 mm 0.00 in0.0 mm
03:13 PM 35.0°F1.7°C 20.1°F-6.6°C 58% 2.0 mph NE3.2 kmh NE 8.0 mph12.9 kmh 30.66 in1038.3 mb 0.00 in0.0 mm 0.00 in0.0 mm 0.00 in0.0 mm
03:15 PM 34.9°F1.6°C 19.5°F-6.9°C 57% 1.0 mph NE1.6 kmh NE 8.0 mph12.9 kmh 30.66 in1038.3 mb 0.00 in0.0 mm 0.00 in0.0 mm 0.00 in0.0 mm
03:17 PM 34.9°F1.6°C 20.0°F-6.7°C 58% 1.0 mph WNW1.6 kmh WNW 8.0 mph12.9 kmh 30.66 in1038.3 mb 0.00 in0.0 mm 0.00 in0.0 mm 0.00 in0.0 mm
03:19 PM 35.0°F1.7°C 19.6°F-6.9°C 57% 1.0 mph NE1.6 kmh NE 5.0 mph8.0 kmh 30.66 in1038.3 mb 0.00 in0.0 mm 0.00 in0.0 mm 0.00 in0.0 mm
03:21 PM 35.0°F1.7°C 20.1°F-6.6°C 58% 3.0 mph NNE4.8 kmh NNE 5.0 mph8.0 kmh 30.67 in1038.6 mb 0.00 in0.0 mm 0.00 in0.0 mm 0.00 in0.0 mm
03:23 PM 35.1°F1.7°C 20.1°F-6.6°C 58% 3.0 mph NNW4.8 kmh NNW 5.0 mph8.0 kmh 30.66 in1038.3 mb 0.00 in0.0 mm 0.00 in0.0 mm 0.00 in0.0 mm
03:25 PM 35.0°F1.7°C 20.1°F-6.6°C 58% 3.0 mph NE4.8 kmh NE 5.0 mph8.0 kmh 30.67 in1038.6 mb 0.00 in0.0 mm 0.00 in0.0 mm 0.00 in0.0 mm
03:27 PM 35.0°F1.7°C 20.5°F-6.4°C 59% 4.0 mph NNW6.4 kmh NNW 5.0 mph8.0 kmh 30.67 in1038.6 mb 0.00 in0.0 mm 0.00 in0.0 mm 0.00 in0.0 mm
03:29 PM 35.0°F1.7°C 19.6°F-6.9°C 57% 1.0 mph NNW1.6 kmh NNW 5.0 mph8.0 kmh 30.67 in1038.6 mb 0.00 in0.0 mm 0.00 in0.0 mm 0.00 in0.0 mm
03:31 PM 35.0°F1.7°C 20.1°F-6.6°C 58% 3.0 mph NNE4.8 kmh NNE 5.0 mph8.0 kmh 30.67 in1038.6 mb 0.00 in0.0 mm 0.00 in0.0 mm 0.00 in0.0 mm
03:33 PM 35.0°F1.7°C 19.6°F-6.9°C 57% 2.0 mph N3.2 kmh N 5.0 mph8.0 kmh 30.67 in1038.6 mb 0.00 in0.0 mm 0.00 in0.0 mm 0.00 in0.0 mm
03:35 PM 35.1°F1.7°C 20.6°F-6.3°C 59% 2.0 mph NNW3.2 kmh NNW 5.0 mph8.0 kmh 30.67 in1038.6 mb 0.00 in0.0 mm 0.00 in0.0 mm 0.00 in0.0 mm
03:37 PM 35.0°F1.7°C 19.6°F-6.9°C 57% 3.0 mph 4.8 kmh 5.0 mph8.0 kmh 30.67 in1038.6 mb 0.00 in0.0 mm 0.00 in0.0 mm 0.00 in0.0 mm
03:39 PM 35.0°F1.7°C 20.1°F-6.6°C 58% 2.0 mph NE3.2 kmh NE 5.0 mph8.0 kmh 30.67 in1038.6 mb 0.00 in0.0 mm 0.00 in0.0 mm 0.00 in0.0 mm
03:41 PM 35.0°F1.7°C 19.6°F-6.9°C 57% 3.0 mph NNW4.8 kmh NNW 5.0 mph8.0 kmh 30.67 in1038.6 mb 0.00 in0.0 mm 0.00 in0.0 mm 0.00 in0.0 mm
03:43 PM 34.9°F1.6°C 19.5°F-6.9°C 57% 1.0 mph NNW1.6 kmh NNW 5.0 mph8.0 kmh 30.67 in1038.6 mb 0.00 in0.0 mm 0.00 in0.0 mm 0.00 in0.0 mm
03:45 PM 34.9°F1.6°C 19.5°F-6.9°C 57% 3.0 mph NNE4.8 kmh NNE 5.0 mph8.0 kmh 30.68 in1038.9 mb 0.00 in0.0 mm 0.00 in0.0 mm 0.00 in0.0 mm
03:47 PM 34.8°F1.6°C 19.0°F-7.2°C 56% 2.0 mph NNE3.2 kmh NNE 5.0 mph8.0 kmh 30.68 in1038.9 mb 0.00 in0.0 mm 0.00 in0.0 mm 0.00 in0.0 mm
03:49 PM 34.7°F1.5°C 19.8°F-6.8°C 58% 2.0 mph NNE3.2 kmh NNE 5.0 mph8.0 kmh 30.68 in1038.9 mb 0.00 in0.0 mm 0.00 in0.0 mm 0.00 in0.0 mm
03:51 PM 34.6°F1.4°C 19.2°F-7.1°C 57% 2.0 mph N3.2 kmh N 5.0 mph8.0 kmh 30.68 in1038.9 mb 0.00 in0.0 mm 0.00 in0.0 mm 0.00 in0.0 mm
03:53 PM 34.6°F1.4°C 19.2°F-7.1°C 57% 2.0 mph N3.2 kmh N 5.0 mph8.0 kmh 30.68 in1038.9 mb 0.00 in0.0 mm 0.00 in0.0 mm 0.00 in0.0 mm
03:55 PM 34.5°F1.4°C 19.2°F-7.1°C 57% 4.0 mph WNW6.4 kmh WNW 7.0 mph11.3 kmh 30.68 in1038.9 mb 0.00 in0.0 mm 0.00 in0.0 mm 0.00 in0.0 mm
03:57 PM 34.5°F1.4°C 19.6°F-6.9°C 58% 4.0 mph 6.4 kmh 7.0 mph11.3 kmh 30.68 in1038.9 mb 0.00 in0.0 mm 0.00 in0.0 mm 0.00 in0.0 mm
03:59 PM 34.5°F1.4°C 19.6°F-6.9°C 58% 1.0 mph N1.6 kmh N 7.0 mph11.3 kmh 30.68 in1038.9 mb 0.00 in0.0 mm 0.00 in0.0 mm 0.00 in0.0 mm
04:01 PM 34.5°F1.4°C 20.0°F-6.7°C 59% 3.0 mph NNW4.8 kmh NNW 7.0 mph11.3 kmh 30.68 in1038.9 mb 0.00 in0.0 mm 0.00 in0.0 mm 0.00 in0.0 mm
04:03 PM 34.6°F1.4°C 19.7°F-6.8°C 58% 2.0 mph NW3.2 kmh NW 7.0 mph11.3 kmh 30.68 in1038.9 mb 0.00 in0.0 mm 0.00 in0.0 mm 0.00 in0.0 mm
04:05 PM 34.6°F1.4°C 19.7°F-6.8°C 58% 1.0 mph NNW1.6 kmh NNW 7.0 mph11.3 kmh 30.68 in1038.9 mb 0.00 in0.0 mm 0.00 in0.0 mm 0.00 in0.0 mm
04:07 PM 34.5°F1.4°C 19.6°F-6.9°C 58% 2.0 mph NW3.2 kmh NW 7.0 mph11.3 kmh 30.68 in1038.9 mb 0.00 in0.0 mm 0.00 in0.0 mm 0.00 in0.0 mm
04:09 PM 34.5°F1.4°C 19.6°F-6.9°C 58% 3.0 mph NW4.8 kmh NW 7.0 mph11.3 kmh 30.68 in1038.9 mb 0.00 in0.0 mm 0.00 in0.0 mm 0.00 in0.0 mm
04:11 PM 34.4°F1.3°C 19.9°F-6.7°C 59% 3.0 mph NE4.8 kmh NE 7.0 mph11.3 kmh 30.68 in1038.9 mb 0.00 in0.0 mm 0.00 in0.0 mm 0.00 in0.0 mm
04:13 PM 34.4°F1.3°C 19.5°F-6.9°C 58% 2.0 mph NNE3.2 kmh NNE 7.0 mph11.3 kmh 30.68 in1038.9 mb 0.00 in0.0 mm 0.00 in0.0 mm 0.00 in0.0 mm
04:15 PM 34.4°F1.3°C 19.5°F-6.9°C 58% 3.0 mph NE4.8 kmh NE 4.0 mph6.4 kmh 30.68 in1038.9 mb 0.00 in0.0 mm 0.00 in0.0 mm 0.00 in0.0 mm
04:17 PM 34.4°F1.3°C 19.1°F-7.2°C 57% 3.0 mph NE4.8 kmh NE 6.0 mph9.7 kmh 30.69 in1039.3 mb 0.00 in0.0 mm 0.00 in0.0 mm 0.00 in0.0 mm
04:19 PM 34.4°F1.3°C 19.9°F-6.7°C 59% 4.0 mph NE6.4 kmh NE 7.0 mph11.3 kmh 30.69 in1039.3 mb 0.00 in0.0 mm 0.00 in0.0 mm 0.00 in0.0 mm
04:21 PM 34.3°F1.3°C 19.4°F-7.0°C 58% 2.0 mph NNW3.2 kmh NNW 7.0 mph11.3 kmh 30.69 in1039.3 mb 0.00 in0.0 mm 0.00 in0.0 mm 0.00 in0.0 mm
04:23 PM 34.3°F1.3°C 19.4°F-7.0°C 58% 2.0 mph NNE3.2 kmh NNE 7.0 mph11.3 kmh 30.69 in1039.3 mb 0.00 in0.0 mm 0.00 in0.0 mm 0.00 in0.0 mm
04:25 PM 34.3°F1.3°C 19.4°F-7.0°C 58% 3.0 mph N4.8 kmh N 7.0 mph11.3 kmh 30.69 in1039.3 mb 0.00 in0.0 mm 0.00 in0.0 mm 0.00 in0.0 mm
04:27 PM 34.3°F1.3°C 19.0°F-7.2°C 57% 2.0 mph NNE3.2 kmh NNE 7.0 mph11.3 kmh 30.69 in1039.3 mb 0.00 in0.0 mm 0.00 in0.0 mm 0.00 in0.0 mm
04:29 PM 34.3°F1.3°C 19.0°F-7.2°C 57% 3.0 mph NE4.8 kmh NE 7.0 mph11.3 kmh 30.69 in1039.3 mb 0.00 in0.0 mm 0.00 in0.0 mm 0.00 in0.0 mm
04:31 PM 34.2°F1.2°C 18.0°F-7.8°C 55% 4.0 mph NE6.4 kmh NE 7.0 mph11.3 kmh 30.69 in1039.3 mb 0.00 in0.0 mm 0.00 in0.0 mm 0.00 in0.0 mm
04:33 PM 34.2°F1.2°C 18.9°F-7.3°C 57% 3.0 mph NNE4.8 kmh NNE 7.0 mph11.3 kmh 30.69 in1039.3 mb 0.00 in0.0 mm 0.00 in0.0 mm 0.00 in0.0 mm
04:35 PM 34.1°F1.2°C 18.8°F-7.3°C 57% 4.0 mph NNE6.4 kmh NNE 7.0 mph11.3 kmh 30.69 in1039.3 mb 0.00 in0.0 mm 0.00 in0.0 mm 0.00 in0.0 mm
04:37 PM 34.0°F1.1°C 18.2°F-7.7°C 56% 3.0 mph N4.8 kmh N 7.0 mph11.3 kmh 30.69 in1039.3 mb 0.00 in0.0 mm 0.00 in0.0 mm 0.00 in0.0 mm
04:39 PM 33.9°F1.1°C 18.6°F-7.4°C 57% 5.0 mph NNE8.0 kmh NNE 6.0 mph9.7 kmh 30.69 in1039.3 mb 0.00 in0.0 mm 0.00 in0.0 mm 0.00 in0.0 mm
04:41 PM 33.8°F1.0°C 18.9°F-7.3°C 58% 3.0 mph NNE4.8 kmh NNE 6.0 mph9.7 kmh 30.69 in1039.3 mb 0.00 in0.0 mm 0.00 in0.0 mm 0.00 in0.0 mm
04:43 PM 33.7°F0.9°C 18.4°F-7.6°C 57% 2.0 mph N3.2 kmh N 6.0 mph9.7 kmh 30.69 in1039.3 mb 0.00 in0.0 mm 0.00 in0.0 mm 0.00 in0.0 mm
04:45 PM 33.7°F0.9°C 19.3°F-7.1°C 59% 1.0 mph NE1.6 kmh NE 6.0 mph9.7 kmh 30.69 in1039.3 mb 0.00 in0.0 mm 0.00 in0.0 mm 0.00 in0.0 mm
04:47 PM 33.7°F0.9°C 18.8°F-7.3°C 58% 2.0 mph NNW3.2 kmh NNW 6.0 mph9.7 kmh 30.69 in1039.3 mb 0.00 in0.0 mm 0.00 in0.0 mm 0.00 in0.0 mm
04:49 PM 33.6°F0.9°C 18.3°F-7.6°C 57% 2.0 mph N3.2 kmh N 5.0 mph8.0 kmh 30.70 in1039.6 mb 0.00 in0.0 mm 0.00 in0.0 mm 0.00 in0.0 mm
04:51 PM 33.6°F0.9°C 18.3°F-7.6°C 57% 3.0 mph N4.8 kmh N 5.0 mph8.0 kmh 30.70 in1039.6 mb 0.00 in0.0 mm 0.00 in0.0 mm 0.00 in0.0 mm
04:53 PM 33.6°F0.9°C 17.9°F-7.8°C 56% 3.0 mph N4.8 kmh N 6.0 mph9.7 kmh 30.70 in1039.6 mb 0.00 in0.0 mm 0.00 in0.0 mm 0.00 in0.0 mm
04:55 PM 33.5°F0.8°C 17.8°F-7.9°C 56% 3.0 mph NE4.8 kmh NE 6.0 mph9.7 kmh 30.69 in1039.3 mb 0.00 in0.0 mm 0.00 in0.0 mm 0.00 in0.0 mm
04:57 PM 33.5°F0.8°C 18.2°F-7.7°C 57% 3.0 mph NNE4.8 kmh NNE 6.0 mph9.7 kmh 30.69 in1039.3 mb 0.00 in0.0 mm 0.00 in0.0 mm 0.00 in0.0 mm
04:59 PM 33.4°F0.8°C 17.7°F-7.9°C 56% 5.0 mph NNE8.0 kmh NNE 6.0 mph9.7 kmh 30.69 in1039.3 mb 0.00 in0.0 mm 0.00 in0.0 mm 0.00 in0.0 mm
05:01 PM 33.4°F0.8°C 17.7°F-7.9°C 56% 5.0 mph N8.0 kmh N 6.0 mph9.7 kmh 30.69 in1039.3 mb 0.00 in0.0 mm 0.00 in0.0 mm 0.00 in0.0 mm
05:03 PM 33.4°F0.8°C 17.7°F-7.9°C 56% 1.0 mph N1.6 kmh N 6.0 mph9.7 kmh 30.69 in1039.3 mb 0.00 in0.0 mm 0.00 in0.0 mm 0.00 in0.0 mm
05:05 PM 33.3°F0.7°C 17.6°F-8.0°C 56% 1.0 mph N1.6 kmh N 6.0 mph9.7 kmh 30.69 in1039.3 mb 0.00 in0.0 mm 0.00 in0.0 mm 0.00 in0.0 mm
05:07 PM 33.3°F0.7°C 18.5°F-7.5°C 58% 3.0 mph NNW4.8 kmh NNW 6.0 mph9.7 kmh 30.69 in1039.3 mb 0.00 in0.0 mm 0.00 in0.0 mm 0.00 in0.0 mm
05:09 PM 33.3°F0.7°C 18.0°F-7.8°C 57% 2.0 mph N3.2 kmh N 6.0 mph9.7 kmh 30.69 in1039.3 mb 0.00 in0.0 mm 0.00 in0.0 mm 0.00 in0.0 mm
05:11 PM 33.3°F0.7°C 18.0°F-7.8°C 57% 2.0 mph NNW3.2 kmh NNW 6.0 mph9.7 kmh 30.69 in1039.3 mb 0.00 in0.0 mm 0.00 in0.0 mm 0.00 in0.0 mm
05:13 PM 33.2°F0.7°C 18.4°F-7.6°C 58% 3.0 mph NNE4.8 kmh NNE 5.0 mph8.0 kmh 30.69 in1039.3 mb 0.00 in0.0 mm 0.00 in0.0 mm 0.00 in0.0 mm
05:15 PM 33.2°F0.7°C 18.4°F-7.6°C 58% 2.0 mph N3.2 kmh N 5.0 mph8.0 kmh 30.69 in1039.3 mb 0.00 in0.0 mm 0.00 in0.0 mm 0.00 in0.0 mm
05:17 PM 33.2°F0.7°C 17.9°F-7.8°C 57% 2.0 mph N3.2 kmh N 5.0 mph8.0 kmh 30.69 in1039.3 mb 0.00 in0.0 mm 0.00 in0.0 mm 0.00 in0.0 mm
05:19 PM 33.1°F0.6°C 18.3°F-7.6°C 58% 2.0 mph NNE3.2 kmh NNE 5.0 mph8.0 kmh 30.69 in1039.3 mb 0.00 in0.0 mm 0.00 in0.0 mm 0.00 in0.0 mm
05:21 PM 33.1°F0.6°C 18.3°F-7.6°C 58% 1.0 mph NNE1.6 kmh NNE 5.0 mph8.0 kmh 30.69 in1039.3 mb 0.00 in0.0 mm 0.00 in0.0 mm 0.00 in0.0 mm
05:23 PM 33.1°F0.6°C 18.3°F-7.6°C 58% 1.0 mph N1.6 kmh N 4.0 mph6.4 kmh 30.69 in1039.3 mb 0.00 in0.0 mm 0.00 in0.0 mm 0.00 in0.0 mm
05:25 PM 33.0°F0.6°C 18.6°F-7.4°C 59% 2.0 mph 3.2 kmh 4.0 mph6.4 kmh 30.69 in1039.3 mb 0.00 in0.0 mm 0.00 in0.0 mm 0.00 in0.0 mm
05:27 PM 32.9°F0.5°C 18.5°F-7.5°C 59% 4.0 mph NNW6.4 kmh NNW 4.0 mph6.4 kmh 30.69 in1039.3 mb 0.00 in0.0 mm 0.00 in0.0 mm 0.00 in0.0 mm
05:29 PM 32.9°F0.5°C 18.1°F-7.7°C 58% 3.0 mph NNW4.8 kmh NNW 4.0 mph6.4 kmh 30.69 in1039.3 mb 0.00 in0.0 mm 0.00 in0.0 mm 0.00 in0.0 mm
05:31 PM 32.8°F0.4°C 18.4°F-7.6°C 59% 2.0 mph N3.2 kmh N 4.0 mph6.4 kmh 30.70 in1039.6 mb 0.00 in0.0 mm 0.00 in0.0 mm 0.00 in0.0 mm
05:33 PM 32.7°F0.4°C 18.3°F-7.6°C 59% 2.0 mph NNW3.2 kmh NNW 4.0 mph6.4 kmh 30.70 in1039.6 mb 0.00 in0.0 mm 0.00 in0.0 mm 0.00 in0.0 mm
05:35 PM 32.7°F0.4°C 18.8°F-7.3°C 60% 1.0 mph NNW1.6 kmh NNW 4.0 mph6.4 kmh 30.70 in1039.6 mb 0.00 in0.0 mm 0.00 in0.0 mm 0.00 in0.0 mm
05:37 PM 32.6°F0.3°C 17.8°F-7.9°C 58% 1.0 mph NE1.6 kmh NE 4.0 mph6.4 kmh 30.70 in1039.6 mb 0.00 in0.0 mm 0.00 in0.0 mm 0.00 in0.0 mm
05:39 PM 32.5°F0.3°C 18.2°F-7.7°C 59% 2.0 mph 3.2 kmh 4.0 mph6.4 kmh 30.70 in1039.6 mb 0.00 in0.0 mm 0.00 in0.0 mm 0.00 in0.0 mm
05:41 PM 32.4°F0.2°C 18.1°F-7.7°C 59% 1.0 mph NE1.6 kmh NE 4.0 mph6.4 kmh 30.70 in1039.6 mb 0.00 in0.0 mm 0.00 in0.0 mm 0.00 in0.0 mm
05:43 PM 32.3°F0.2°C 18.0°F-7.8°C 59% 3.0 mph NE4.8 kmh NE 3.0 mph4.8 kmh 30.70 in1039.6 mb 0.00 in0.0 mm 0.00 in0.0 mm 0.00 in0.0 mm
05:45 PM 32.2°F0.1°C 17.9°F-7.8°C 59% 1.0 mph NNE1.6 kmh NNE 4.0 mph6.4 kmh 30.70 in1039.6 mb 0.00 in0.0 mm 0.00 in0.0 mm 0.00 in0.0 mm
05:47 PM 32.2°F0.1°C 18.3°F-7.6°C 60% 1.0 mph NNE1.6 kmh NNE 4.0 mph6.4 kmh 30.70 in1039.6 mb 0.00 in0.0 mm 0.00 in0.0 mm 0.00 in0.0 mm
05:49 PM 32.1°F0.1°C 17.8°F-7.9°C 59% 1.0 mph NNE1.6 kmh NNE 4.0 mph6.4 kmh 30.70 in1039.6 mb 0.00 in0.0 mm 0.00 in0.0 mm 0.00 in0.0 mm
05:51 PM 32.0°F0.0°C 18.1°F-7.7°C 60% 2.0 mph NNE3.2 kmh NNE 4.0 mph6.4 kmh 30.70 in1039.6 mb 0.00 in0.0 mm 0.00 in0.0 mm 0.00 in0.0 mm
05:53 PM 31.9°F-0.1°C 18.0°F-7.8°C 60% 1.0 mph N1.6 kmh N 4.0 mph6.4 kmh 30.70 in1039.6 mb 0.00 in0.0 mm 0.00 in0.0 mm 0.00 in0.0 mm
05:55 PM 31.9°F-0.1°C 18.0°F-7.8°C 60% 2.0 mph N3.2 kmh N 4.0 mph6.4 kmh 30.70 in1039.6 mb 0.00 in0.0 mm 0.00 in0.0 mm 0.00 in0.0 mm
05:57 PM 31.7°F-0.2°C 17.8°F-7.9°C 60% 1.0 mph N1.6 kmh N 4.0 mph6.4 kmh 30.70 in1039.6 mb 0.00 in0.0 mm 0.00 in0.0 mm 0.00 in0.0 mm
05:59 PM 31.7°F-0.2°C 17.8°F-7.9°C 60% 1.0 mph N1.6 kmh N 4.0 mph6.4 kmh 30.70 in1039.6 mb 0.00 in0.0 mm 0.00 in0.0 mm 0.00 in0.0 mm
06:01 PM 31.6°F-0.2°C 17.7°F-7.9°C 60% 2.0 mph N3.2 kmh N 4.0 mph6.4 kmh 30.70 in1039.6 mb 0.00 in0.0 mm 0.00 in0.0 mm 0.00 in0.0 mm
06:03 PM 31.6°F-0.2°C 17.7°F-7.9°C 60% 1.0 mph 1.6 kmh 4.0 mph6.4 kmh 30.71 in1040.0 mb 0.00 in0.0 mm 0.00 in0.0 mm 0.00 in0.0 mm
06:05 PM 31.5°F-0.3°C 18.0°F-7.8°C 61% 1.0 mph 1.6 kmh 3.0 mph4.8 kmh 30.71 in1040.0 mb 0.00 in0.0 mm 0.00 in0.0 mm 0.00 in0.0 mm
06:07 PM 31.4°F-0.3°C 17.9°F-7.8°C 61% 2.0 mph 3.2 kmh 3.0 mph4.8 kmh 30.71 in1040.0 mb 0.00 in0.0 mm 0.00 in0.0 mm 0.00 in0.0 mm
06:09 PM 31.4°F-0.3°C 17.9°F-7.8°C 61% 1.0 mph 1.6 kmh 3.0 mph4.8 kmh 30.71 in1040.0 mb 0.00 in0.0 mm 0.00 in0.0 mm 0.00 in0.0 mm
06:11 PM 31.2°F-0.4°C 17.8°F-7.9°C 61% Calm Calm 3.0 mph4.8 kmh 30.71 in1040.0 mb 0.00 in0.0 mm 0.00 in0.0 mm 0.00 in0.0 mm
06:13 PM 31.2°F-0.4°C 17.8°F-7.9°C 61% 2.0 mph 3.2 kmh 3.0 mph4.8 kmh 30.71 in1040.0 mb 0.00 in0.0 mm 0.00 in0.0 mm 0.00 in0.0 mm
06:15 PM 31.1°F-0.5°C 17.7°F-7.9°C 61% 2.0 mph 3.2 kmh 2.0 mph3.2 kmh 30.72 in1040.3 mb 0.00 in0.0 mm 0.00 in0.0 mm 0.00 in0.0 mm
06:17 PM 31.0°F-0.6°C 17.6°F-8.0°C 61% 1.0 mph N1.6 kmh N 2.0 mph3.2 kmh 30.72 in1040.3 mb 0.00 in0.0 mm 0.00 in0.0 mm 0.00 in0.0 mm
06:19 PM 30.9°F-0.6°C 17.9°F-7.8°C 62% 1.0 mph N1.6 kmh N 2.0 mph3.2 kmh 30.72 in1040.3 mb 0.00 in0.0 mm 0.00 in0.0 mm 0.00 in0.0 mm
06:21 PM 30.8°F-0.7°C 17.8°F-7.9°C 62% 2.0 mph N3.2 kmh N 2.0 mph3.2 kmh 30.71 in1040.0 mb 0.00 in0.0 mm 0.00 in0.0 mm 0.00 in0.0 mm
06:23 PM 30.8°F-0.7°C 17.8°F-7.9°C 62% 1.0 mph N1.6 kmh N 2.0 mph3.2 kmh 30.72 in1040.3 mb 0.00 in0.0 mm 0.00 in0.0 mm 0.00 in0.0 mm
06:25 PM 30.7°F-0.7°C 17.7°F-7.9°C 62% 1.0 mph N1.6 kmh N 2.0 mph3.2 kmh 30.72 in1040.3 mb 0.00 in0.0 mm 0.00 in0.0 mm 0.00 in0.0 mm
06:27 PM 30.6°F-0.8°C 17.6°F-8.0°C 62% 1.0 mph N1.6 kmh N 2.0 mph3.2 kmh 30.72 in1040.3 mb 0.00 in0.0 mm 0.00 in0.0 mm 0.00 in0.0 mm
06:29 PM 30.6°F-0.8°C 17.6°F-8.0°C 62% 1.0 mph N1.6 kmh N 2.0 mph3.2 kmh 30.72 in1040.3 mb 0.00 in0.0 mm 0.00 in0.0 mm 0.00 in0.0 mm
06:31 PM 30.5°F-0.8°C 17.5°F-8.1°C 62% Calm Calm 2.0 mph3.2 kmh 30.72 in1040.3 mb 0.00 in0.0 mm 0.00 in0.0 mm 0.00 in0.0 mm
06:33 PM 30.4°F-0.9°C 17.4°F-8.1°C 62% Calm Calm 2.0 mph3.2 kmh 30.72 in1040.3 mb 0.00 in0.0 mm 0.00 in0.0 mm 0.00 in0.0 mm
06:35 PM 30.3°F-0.9°C 17.3°F-8.2°C 62% Calm Calm -- 30.72 in1040.3 mb 0.00 in0.0 mm 0.00 in0.0 mm 0.00 in0.0 mm
06:37 PM 30.2°F-1.0°C 17.2°F-8.2°C 62% Calm Calm -- 30.72 in1040.3 mb 0.00 in0.0 mm 0.00 in0.0 mm 0.00 in0.0 mm
06:39 PM 30.1°F-1.1°C 17.1°F-8.3°C 62% Calm Calm 1.0 mph1.6 kmh 30.72 in1040.3 mb 0.00 in0.0 mm 0.00 in0.0 mm 0.00 in0.0 mm
06:41 PM 30.0°F-1.1°C 17.4°F-8.1°C 63% 1.0 mph N1.6 kmh N 1.0 mph1.6 kmh 30.72 in1040.3 mb 0.00 in0.0 mm 0.00 in0.0 mm 0.00 in0.0 mm
06:43 PM 29.9°F-1.2°C 17.3°F-8.2°C 63% 1.0 mph N1.6 kmh N 2.0 mph3.2 kmh 30.72 in1040.3 mb 0.00 in0.0 mm 0.00 in0.0 mm 0.00 in0.0 mm
06:45 PM 29.7°F-1.3°C 16.8°F-8.4°C 62% 2.0 mph N3.2 kmh N 3.0 mph4.8 kmh 30.72 in1040.3 mb 0.00 in0.0 mm 0.00 in0.0 mm 0.00 in0.0 mm
06:47 PM 29.7°F-1.3°C 17.1°F-8.3°C 63% 2.0 mph N3.2 kmh N 3.0 mph4.8 kmh 30.72 in1040.3 mb 0.00 in0.0 mm 0.00 in0.0 mm 0.00 in0.0 mm
06:49 PM 29.7°F-1.3°C 17.1°F-8.3°C 63% 2.0 mph N3.2 kmh N 3.0 mph4.8 kmh 30.72 in1040.3 mb 0.00 in0.0 mm 0.00 in0.0 mm 0.00 in0.0 mm
06:51 PM 29.7°F-1.3°C 17.1°F-8.3°C 63% 1.0 mph N1.6 kmh N 3.0 mph4.8 kmh 30.73 in1040.6 mb 0.00 in0.0 mm 0.00 in0.0 mm 0.00 in0.0 mm
06:53 PM 29.7°F-1.3°C 16.8°F-8.4°C 62% 1.0 mph N1.6 kmh N 3.0 mph4.8 kmh 30.73 in1040.6 mb 0.00 in0.0 mm 0.00 in0.0 mm 0.00 in0.0 mm
06:55 PM 29.7°F-1.3°C 16.8°F-8.4°C 62% 1.0 mph N1.6 kmh N 3.0 mph4.8 kmh 30.73 in1040.6 mb 0.00 in0.0 mm 0.00 in0.0 mm 0.00 in0.0 mm
06:57 PM 29.7°F-1.3°C 16.8°F-8.4°C 62% Calm Calm 3.0 mph4.8 kmh 30.73 in1040.6 mb 0.00 in0.0 mm 0.00 in0.0 mm 0.00 in0.0 mm
06:59 PM 29.7°F-1.3°C 16.8°F-8.4°C 62% Calm Calm 3.0 mph4.8 kmh 30.73 in1040.6 mb 0.00 in0.0 mm 0.00 in0.0 mm 0.00 in0.0 mm
07:01 PM 29.6°F-1.3°C 16.7°F-8.5°C 62% 1.0 mph N1.6 kmh N 3.0 mph4.8 kmh 30.73 in1040.6 mb 0.00 in0.0 mm 0.00 in0.0 mm 0.00 in0.0 mm
07:03 PM 29.6°F-1.3°C 16.7°F-8.5°C 62% 1.0 mph N1.6 kmh N 3.0 mph4.8 kmh 30.73 in1040.6 mb 0.00 in0.0 mm 0.00 in0.0 mm 0.00 in0.0 mm
07:05 PM 29.5°F-1.4°C 17.0°F-8.3°C 63% Calm Calm 2.0 mph3.2 kmh 30.73 in1040.6 mb 0.00 in0.0 mm 0.00 in0.0 mm 0.00 in0.0 mm
07:07 PM 29.4°F-1.4°C 16.9°F-8.4°C 63% 1.0 mph N1.6 kmh N 2.0 mph3.2 kmh 30.73 in1040.6 mb 0.00 in0.0 mm 0.00 in0.0 mm 0.00 in0.0 mm
07:09 PM 29.3°F-1.5°C 16.8°F-8.4°C 63% Calm Calm 2.0 mph3.2 kmh 30.73 in1040.6 mb 0.00 in0.0 mm 0.00 in0.0 mm 0.00 in0.0 mm
07:11 PM 29.2°F-1.6°C 16.7°F-8.5°C 63% Calm Calm 2.0 mph3.2 kmh 30.73 in1040.6 mb 0.00 in0.0 mm 0.00 in0.0 mm 0.00 in0.0 mm
07:13 PM 29.1°F-1.6°C 16.6°F-8.6°C 63% Calm Calm -- 30.73 in1040.6 mb 0.00 in0.0 mm 0.00 in0.0 mm 0.00 in0.0 mm
07:15 PM 29.0°F-1.7°C 16.5°F-8.6°C 63% Calm Calm 1.0 mph1.6 kmh 30.73 in1040.6 mb 0.00 in0.0 mm 0.00 in0.0 mm 0.00 in0.0 mm
07:17 PM 28.9°F-1.7°C 16.4°F-8.7°C 63% Calm Calm 1.0 mph1.6 kmh 30.73 in1040.6 mb 0.00 in0.0 mm 0.00 in0.0 mm 0.00 in0.0 mm
07:19 PM 28.8°F-1.8°C 16.3°F-8.7°C 63% Calm Calm -- 30.73 in1040.6 mb 0.00 in0.0 mm 0.00 in0.0 mm 0.00 in0.0 mm
07:21 PM 28.7°F-1.8°C 16.6°F-8.6°C 64% Calm Calm 1.0 mph1.6 kmh 30.73 in1040.6 mb 0.00 in0.0 mm 0.00 in0.0 mm 0.00 in0.0 mm
07:23 PM 28.6°F-1.9°C 16.5°F-8.6°C 64% 1.0 mph N1.6 kmh N 1.0 mph1.6 kmh 30.73 in1040.6 mb 0.00 in0.0 mm 0.00 in0.0 mm 0.00 in0.0 mm
07:25 PM 28.6°F-1.9°C 16.5°F-8.6°C 64% 1.0 mph N1.6 kmh N 1.0 mph1.6 kmh 30.73 in1040.6 mb 0.00 in0.0 mm 0.00 in0.0 mm 0.00 in0.0 mm
07:27 PM 28.5°F-1.9°C 16.8°F-8.4°C 65% 1.0 mph N1.6 kmh N 2.0 mph3.2 kmh 30.73 in1040.6 mb 0.00 in0.0 mm 0.00 in0.0 mm 0.00 in0.0 mm
07:29 PM 28.4°F-2.0°C 16.7°F-8.5°C 65% 2.0 mph N3.2 kmh N 2.0 mph3.2 kmh 30.74 in1041.0 mb 0.00 in0.0 mm 0.00 in0.0 mm 0.00 in0.0 mm
07:31 PM 28.3°F-2.1°C 16.6°F-8.6°C 65% 1.0 mph N1.6 kmh N 2.0 mph3.2 kmh 30.74 in1041.0 mb 0.00 in0.0 mm 0.00 in0.0 mm 0.00 in0.0 mm
07:33 PM 28.1°F-2.2°C 16.4°F-8.7°C 65% 1.0 mph N1.6 kmh N 2.0 mph3.2 kmh 30.74 in1041.0 mb 0.00 in0.0 mm 0.00 in0.0 mm 0.00 in0.0 mm
07:35 PM 28.0°F-2.2°C 16.3°F-8.7°C 65% Calm Calm 2.0 mph3.2 kmh 30.74 in1041.0 mb 0.00 in0.0 mm 0.00 in0.0 mm 0.00 in0.0 mm
07:37 PM 27.9°F-2.3°C 16.2°F-8.8°C 65% 1.0 mph N1.6 kmh N 2.0 mph3.2 kmh 30.74 in1041.0 mb 0.00 in0.0 mm 0.00 in0.0 mm 0.00 in0.0 mm
07:39 PM 27.9°F-2.3°C 16.6°F-8.6°C 66% 1.0 mph N1.6 kmh N 2.0 mph3.2 kmh 30.74 in1041.0 mb 0.00 in0.0 mm 0.00 in0.0 mm 0.00 in0.0 mm
07:41 PM 27.8°F-2.3°C 16.5°F-8.6°C 66% 1.0 mph N1.6 kmh N 2.0 mph3.2 kmh 30.74 in1041.0 mb 0.00 in0.0 mm 0.00 in0.0 mm 0.00 in0.0 mm
07:43 PM 27.8°F-2.3°C 16.5°F-8.6°C 66% 1.0 mph N1.6 kmh N 2.0 mph3.2 kmh 30.74 in1041.0 mb 0.00 in0.0 mm 0.00 in0.0 mm 0.00 in0.0 mm
07:45 PM 27.8°F-2.3°C 16.5°F-8.6°C 66% Calm Calm 2.0 mph3.2 kmh 30.74 in1041.0 mb 0.00 in0.0 mm 0.00 in0.0 mm 0.00 in0.0 mm
07:47 PM 27.7°F-2.4°C 16.8°F-8.4°C 67% 1.0 mph N1.6 kmh N 2.0 mph3.2 kmh 30.74 in1041.0 mb 0.00 in0.0 mm 0.00 in0.0 mm 0.00 in0.0 mm
07:49 PM 27.6°F-2.4°C 16.7°F-8.5°C 67% 1.0 mph N1.6 kmh N 2.0 mph3.2 kmh 30.74 in1041.0 mb 0.00 in0.0 mm 0.00 in0.0 mm 0.00 in0.0 mm
07:51 PM 27.5°F-2.5°C 16.2°F-8.8°C 66% Calm Calm 2.0 mph3.2 kmh 30.74 in1041.0 mb 0.00 in0.0 mm 0.00 in0.0 mm 0.00 in0.0 mm
07:53 PM 27.4°F-2.6°C 16.1°F-8.8°C 66% Calm Calm -- 30.74 in1041.0 mb 0.00 in0.0 mm 0.00 in0.0 mm 0.00 in0.0 mm
07:55 PM 27.3°F-2.6°C 16.4°F-8.7°C 67% Calm Calm 1.0 mph1.6 kmh 30.75 in1041.3 mb 0.00 in0.0 mm 0.00 in0.0 mm 0.00 in0.0 mm
07:57 PM 27.2°F-2.7°C 16.3°F-8.7°C 67% Calm Calm 1.0 mph1.6 kmh 30.75 in1041.3 mb 0.00 in0.0 mm 0.00 in0.0 mm 0.00 in0.0 mm
07:59 PM 27.1°F-2.7°C 16.2°F-8.8°C 67% Calm Calm -- 30.74 in1041.0 mb 0.00 in0.0 mm 0.00 in0.0 mm 0.00 in0.0 mm
08:01 PM 27.0°F-2.8°C 16.1°F-8.8°C 67% Calm Calm 1.0 mph1.6 kmh 30.75 in1041.3 mb 0.00 in0.0 mm 0.00 in0.0 mm 0.00 in0.0 mm
08:03 PM 26.9°F-2.8°C 16.0°F-8.9°C 67% Calm Calm -- 30.75 in1041.3 mb 0.00 in0.0 mm 0.00 in0.0 mm 0.00 in0.0 mm
08:05 PM 26.8°F-2.9°C 15.9°F-8.9°C 67% Calm Calm -- 30.75 in1041.3 mb 0.00 in0.0 mm 0.00 in0.0 mm 0.00 in0.0 mm
08:07 PM 26.7°F-2.9°C 16.2°F-8.8°C 68% 1.0 mph N1.6 kmh N 1.0 mph1.6 kmh 30.75 in1041.3 mb 0.00 in0.0 mm 0.00 in0.0 mm 0.00 in0.0 mm
08:09 PM 26.7°F-2.9°C 16.2°F-8.8°C 68% Calm Calm 1.0 mph1.6 kmh 30.75 in1041.3 mb 0.00 in0.0 mm 0.00 in0.0 mm 0.00 in0.0 mm
08:11 PM 26.7°F-2.9°C 16.2°F-8.8°C 68% Calm Calm 1.0 mph1.6 kmh 30.75 in1041.3 mb 0.00 in0.0 mm 0.00 in0.0 mm 0.00 in0.0 mm
08:13 PM 26.7°F-2.9°C 16.2°F-8.8°C 68% Calm Calm 1.0 mph1.6 kmh 30.75 in1041.3 mb 0.00 in0.0 mm 0.00 in0.0 mm 0.00 in0.0 mm
08:15 PM 26.7°F-2.9°C 16.2°F-8.8°C 68% Calm Calm 1.0 mph1.6 kmh 30.75 in1041.3 mb 0.00 in0.0 mm 0.00 in0.0 mm 0.00 in0.0 mm
08:17 PM 26.6°F-3.0°C 16.1°F-8.8°C 68% Calm Calm 1.0 mph1.6 kmh 30.75 in1041.3 mb 0.00 in0.0 mm 0.00 in0.0 mm 0.00 in0.0 mm
08:19 PM 26.6°F-3.0°C 16.4°F-8.7°C 69% Calm Calm -- 30.75 in1041.3 mb 0.00 in0.0 mm 0.00 in0.0 mm 0.00 in0.0 mm
08:21 PM 26.5°F-3.1°C 16.0°F-8.9°C 68% Calm Calm -- 30.75 in1041.3 mb 0.00 in0.0 mm 0.00 in0.0 mm 0.00 in0.0 mm
08:23 PM 26.4°F-3.1°C 16.3°F-8.7°C 69% Calm Calm -- 30.75 in1041.3 mb 0.00 in0.0 mm 0.00 in0.0 mm 0.00 in0.0 mm
08:25 PM 26.3°F-3.2°C 16.2°F-8.8°C 69% Calm Calm -- 30.75 in1041.3 mb 0.00 in0.0 mm 0.00 in0.0 mm 0.00 in0.0 mm
08:27 PM 26.3°F-3.2°C 16.2°F-8.8°C 69% Calm Calm -- 30.75 in1041.3 mb 0.00 in0.0 mm 0.00 in0.0 mm 0.00 in0.0 mm
08:29 PM 26.2°F-3.2°C 16.1°F-8.8°C 69% Calm Calm -- 30.75 in1041.3 mb 0.00 in0.0 mm 0.00 in0.0 mm 0.00 in0.0 mm
08:31 PM 26.1°F-3.3°C 16.0°F-8.9°C 69% Calm Calm 1.0 mph1.6 kmh 30.76 in1041.7 mb 0.00 in0.0 mm 0.00 in0.0 mm 0.00 in0.0 mm
08:33 PM 26.1°F-3.3°C 16.0°F-8.9°C 69% Calm Calm -- 30.76 in1041.7 mb 0.00 in0.0 mm 0.00 in0.0 mm 0.00 in0.0 mm
08:35 PM 26.1°F-3.3°C 16.0°F-8.9°C 69% Calm Calm -- 30.76 in1041.7 mb 0.00 in0.0 mm 0.00 in0.0 mm 0.00 in0.0 mm
08:37 PM 26.1°F-3.3°C 16.0°F-8.9°C 69% Calm Calm -- 30.76 in1041.7 mb 0.00 in0.0 mm 0.00 in0.0 mm 0.00 in0.0 mm
08:39 PM 26.0°F-3.3°C 15.9°F-8.9°C 69% Calm Calm 1.0 mph1.6 kmh 30.76 in1041.7 mb 0.00 in0.0 mm 0.00 in0.0 mm 0.00 in0.0 mm
08:41 PM 26.0°F-3.3°C 15.9°F-8.9°C 69% Calm Calm 1.0 mph1.6 kmh 30.76 in1041.7 mb 0.00 in0.0 mm 0.00 in0.0 mm 0.00 in0.0 mm
08:43 PM 26.0°F-3.3°C 16.2°F-8.8°C 70% 1.0 mph N1.6 kmh N 1.0 mph1.6 kmh 30.75 in1041.3 mb 0.00 in0.0 mm 0.00 in0.0 mm 0.00 in0.0 mm
08:45 PM 26.0°F-3.3°C 16.2°F-8.8°C 70% Calm Calm 2.0 mph3.2 kmh 30.75 in1041.3 mb 0.00 in0.0 mm 0.00 in0.0 mm 0.00 in0.0 mm
08:47 PM 26.0°F-3.3°C 15.9°F-8.9°C 69% 2.0 mph N3.2 kmh N 2.0 mph3.2 kmh 30.76 in1041.7 mb 0.00 in0.0 mm 0.00 in0.0 mm 0.00 in0.0 mm
08:49 PM 26.0°F-3.3°C 15.9°F-8.9°C 69% 1.0 mph N1.6 kmh N 3.0 mph4.8 kmh 30.76 in1041.7 mb 0.00 in0.0 mm 0.00 in0.0 mm 0.00 in0.0 mm
08:51 PM 25.9°F-3.4°C 15.8°F-9.0°C 69% 1.0 mph N1.6 kmh N 3.0 mph4.8 kmh 30.76 in1041.7 mb 0.00 in0.0 mm 0.00 in0.0 mm 0.00 in0.0 mm
08:53 PM 25.9°F-3.4°C 16.1°F-8.8°C 70% 1.0 mph N1.6 kmh N 3.0 mph4.8 kmh 30.76 in1041.7 mb 0.00 in0.0 mm 0.00 in0.0 mm 0.00 in0.0 mm
08:55 PM 25.9°F-3.4°C 16.1°F-8.8°C 70% Calm Calm 3.0 mph4.8 kmh 30.76 in1041.7 mb 0.00 in0.0 mm 0.00 in0.0 mm 0.00 in0.0 mm
08:57 PM 25.8°F-3.4°C 16.4°F-8.7°C 71% 2.0 mph NNE3.2 kmh NNE 3.0 mph4.8 kmh 30.76 in1041.7 mb 0.00 in0.0 mm 0.00 in0.0 mm 0.00 in0.0 mm
08:59 PM 25.8°F-3.4°C 16.4°F-8.7°C 71% Calm Calm 3.0 mph4.8 kmh 30.76 in1041.7 mb 0.00 in0.0 mm 0.00 in0.0 mm 0.00 in0.0 mm
09:01 PM 25.8°F-3.4°C 16.0°F-8.9°C 70% Calm Calm 4.0 mph6.4 kmh 30.76 in1041.7 mb 0.00 in0.0 mm 0.00 in0.0 mm 0.00 in0.0 mm
09:03 PM 25.7°F-3.5°C 15.9°F-8.9°C 70% 1.0 mph E1.6 kmh E 4.0 mph6.4 kmh 30.76 in1041.7 mb 0.00 in0.0 mm 0.00 in0.0 mm 0.00 in0.0 mm
09:05 PM 25.7°F-3.5°C 15.6°F-9.1°C 69% 2.0 mph ENE3.2 kmh ENE 4.0 mph6.4 kmh 30.76 in1041.7 mb 0.00 in0.0 mm 0.00 in0.0 mm 0.00 in0.0 mm
09:07 PM 25.7°F-3.5°C 15.9°F-8.9°C 70% 2.0 mph ENE3.2 kmh ENE 4.0 mph6.4 kmh 30.76 in1041.7 mb 0.00 in0.0 mm 0.00 in0.0 mm 0.00 in0.0 mm
09:09 PM 25.6°F-3.6°C 15.8°F-9.0°C 70% 2.0 mph ENE3.2 kmh ENE 4.0 mph6.4 kmh 30.76 in1041.7 mb 0.00 in0.0 mm 0.00 in0.0 mm 0.00 in0.0 mm
09:11 PM 25.6°F-3.6°C 16.2°F-8.8°C 71% 2.0 mph ENE3.2 kmh ENE 4.0 mph6.4 kmh 30.76 in1041.7 mb 0.00 in0.0 mm 0.00 in0.0 mm 0.00 in0.0 mm
09:13 PM 25.6°F-3.6°C 15.5°F-9.2°C 69% 1.0 mph NE1.6 kmh NE 4.0 mph6.4 kmh 30.76 in1041.7 mb 0.00 in0.0 mm 0.00 in0.0 mm 0.00 in0.0 mm
09:15 PM 25.6°F-3.6°C 15.1°F-9.4°C 68% 3.0 mph NE4.8 kmh NE 4.0 mph6.4 kmh 30.77 in1042.0 mb 0.00 in0.0 mm 0.00 in0.0 mm 0.00 in0.0 mm
09:17 PM 25.7°F-3.5°C 14.9°F-9.5°C 67% 2.0 mph NE3.2 kmh NE 5.0 mph8.0 kmh 30.77 in1042.0 mb 0.00 in0.0 mm 0.00 in0.0 mm 0.00 in0.0 mm
09:19 PM 25.8°F-3.4°C 15.0°F-9.4°C 67% 2.0 mph NE3.2 kmh NE 5.0 mph8.0 kmh 30.76 in1041.7 mb 0.00 in0.0 mm 0.00 in0.0 mm 0.00 in0.0 mm
09:21 PM 25.9°F-3.4°C 15.1°F-9.4°C 67% 3.0 mph E4.8 kmh E 5.0 mph8.0 kmh 30.76 in1041.7 mb 0.00 in0.0 mm 0.00 in0.0 mm 0.00 in0.0 mm
09:23 PM 26.0°F-3.3°C 14.8°F-9.6°C 66% 1.0 mph NNE1.6 kmh NNE 5.0 mph8.0 kmh 30.77 in1042.0 mb 0.00 in0.0 mm 0.00 in0.0 mm 0.00 in0.0 mm
09:25 PM 26.0°F-3.3°C 14.8°F-9.6°C 66% 2.0 mph NE3.2 kmh NE 5.0 mph8.0 kmh 30.77 in1042.0 mb 0.00 in0.0 mm 0.00 in0.0 mm 0.00 in0.0 mm
09:27 PM 26.0°F-3.3°C 14.8°F-9.6°C 66% 1.0 mph NE1.6 kmh NE 5.0 mph8.0 kmh 30.77 in1042.0 mb 0.00 in0.0 mm 0.00 in0.0 mm 0.00 in0.0 mm
09:29 PM 26.0°F-3.3°C 14.8°F-9.6°C 66% 1.0 mph NE1.6 kmh NE 5.0 mph8.0 kmh 30.77 in1042.0 mb 0.00 in0.0 mm 0.00 in0.0 mm 0.00 in0.0 mm
09:31 PM 26.0°F-3.3°C 14.8°F-9.6°C 66% 3.0 mph NE4.8 kmh NE 5.0 mph8.0 kmh 30.77 in1042.0 mb 0.00 in0.0 mm 0.00 in0.0 mm 0.00 in0.0 mm
09:33 PM 26.0°F-3.3°C 14.8°F-9.6°C 66% 2.0 mph NE3.2 kmh NE 5.0 mph8.0 kmh 30.77 in1042.0 mb 0.00 in0.0 mm 0.00 in0.0 mm 0.00 in0.0 mm
09:35 PM 26.0°F-3.3°C 14.4°F-9.8°C 65% 2.0 mph NE3.2 kmh NE 5.0 mph8.0 kmh 30.77 in1042.0 mb 0.00 in0.0 mm 0.00 in0.0 mm 0.00 in0.0 mm
09:37 PM 26.1°F-3.3°C 14.5°F-9.7°C 65% 2.0 mph NE3.2 kmh NE 4.0 mph6.4 kmh 30.77 in1042.0 mb 0.00 in0.0 mm 0.00 in0.0 mm 0.00 in0.0 mm
09:39 PM 26.1°F-3.3°C 14.5°F-9.7°C 65% 2.0 mph NE3.2 kmh NE 5.0 mph8.0 kmh 30.77 in1042.0 mb 0.00 in0.0 mm 0.00 in0.0 mm 0.00 in0.0 mm
09:41 PM 26.1°F-3.3°C 14.5°F-9.7°C 65% 2.0 mph NE3.2 kmh NE 5.0 mph8.0 kmh 30.77 in1042.0 mb 0.00 in0.0 mm 0.00 in0.0 mm 0.00 in0.0 mm
09:43 PM 26.1°F-3.3°C 14.5°F-9.7°C 65% 2.0 mph NE3.2 kmh NE 5.0 mph8.0 kmh 30.77 in1042.0 mb 0.00 in0.0 mm 0.00 in0.0 mm 0.00 in0.0 mm
09:45 PM 26.0°F-3.3°C 14.4°F-9.8°C 65% 2.0 mph ENE3.2 kmh ENE 5.0 mph8.0 kmh 30.77 in1042.0 mb 0.00 in0.0 mm 0.00 in0.0 mm 0.00 in0.0 mm
09:47 PM 26.0°F-3.3°C 14.4°F-9.8°C 65% 1.0 mph ENE1.6 kmh ENE 5.0 mph8.0 kmh 30.77 in1042.0 mb 0.00 in0.0 mm 0.00 in0.0 mm 0.00 in0.0 mm
09:49 PM 26.0°F-3.3°C 14.4°F-9.8°C 65% 2.0 mph ENE3.2 kmh ENE 5.0 mph8.0 kmh 30.77 in1042.0 mb 0.00 in0.0 mm 0.00 in0.0 mm 0.00 in0.0 mm
09:51 PM 25.9°F-3.4°C 14.7°F-9.6°C 66% Calm Calm 5.0 mph8.0 kmh 30.77 in1042.0 mb 0.00 in0.0 mm 0.00 in0.0 mm 0.00 in0.0 mm
09:53 PM 25.8°F-3.4°C 14.6°F-9.7°C 66% 1.0 mph NE1.6 kmh NE 5.0 mph8.0 kmh 30.77 in1042.0 mb 0.00 in0.0 mm 0.00 in0.0 mm 0.00 in0.0 mm
09:55 PM 25.8°F-3.4°C 14.6°F-9.7°C 66% 2.0 mph NNE3.2 kmh NNE 5.0 mph8.0 kmh 30.78 in1042.3 mb 0.00 in0.0 mm 0.00 in0.0 mm 0.00 in0.0 mm
09:57 PM 25.8°F-3.4°C 14.6°F-9.7°C 66% 2.0 mph NE3.2 kmh NE 5.0 mph8.0 kmh 30.77 in1042.0 mb 0.00 in0.0 mm 0.00 in0.0 mm 0.00 in0.0 mm
09:59 PM 25.7°F-3.5°C 14.5°F-9.7°C 66% 2.0 mph NE3.2 kmh NE 4.0 mph6.4 kmh 30.78 in1042.3 mb 0.00 in0.0 mm 0.00 in0.0 mm 0.00 in0.0 mm
10:01 PM 25.7°F-3.5°C 14.5°F-9.7°C 66% 3.0 mph ENE4.8 kmh ENE 4.0 mph6.4 kmh 30.78 in1042.3 mb 0.00 in0.0 mm 0.00 in0.0 mm 0.00 in0.0 mm
10:03 PM 25.6°F-3.6°C 14.4°F-9.8°C 66% 3.0 mph NE4.8 kmh NE 4.0 mph6.4 kmh 30.78 in1042.3 mb 0.00 in0.0 mm 0.00 in0.0 mm 0.00 in0.0 mm
10:05 PM 25.6°F-3.6°C 14.4°F-9.8°C 66% 2.0 mph NE3.2 kmh NE 4.0 mph6.4 kmh 30.78 in1042.3 mb 0.00 in0.0 mm 0.00 in0.0 mm 0.00 in0.0 mm
10:07 PM 25.6°F-3.6°C 14.4°F-9.8°C 66% 3.0 mph NE4.8 kmh NE 4.0 mph6.4 kmh 30.78 in1042.3 mb 0.00 in0.0 mm 0.00 in0.0 mm 0.00 in0.0 mm
10:09 PM 25.6°F-3.6°C 14.4°F-9.8°C 66% 3.0 mph NE4.8 kmh NE 4.0 mph6.4 kmh 30.78 in1042.3 mb 0.00 in0.0 mm 0.00 in0.0 mm 0.00 in0.0 mm
10:11 PM 25.6°F-3.6°C 14.8°F-9.6°C 67% 2.0 mph NE3.2 kmh NE 4.0 mph6.4 kmh 30.78 in1042.3 mb 0.00 in0.0 mm 0.00 in0.0 mm 0.00 in0.0 mm
10:13 PM 25.5°F-3.6°C 14.7°F-9.6°C 67% 3.0 mph NE4.8 kmh NE 4.0 mph6.4 kmh 30.78 in1042.3 mb 0.00 in0.0 mm 0.00 in0.0 mm 0.00 in0.0 mm
10:15 PM 25.5°F-3.6°C 14.7°F-9.6°C 67% 2.0 mph NE3.2 kmh NE 4.0 mph6.4 kmh 30.78 in1042.3 mb 0.00 in0.0 mm 0.00 in0.0 mm 0.00 in0.0 mm
10:17 PM 25.5°F-3.6°C 14.7°F-9.6°C 67% 1.0 mph NE1.6 kmh NE 4.0 mph6.4 kmh 30.78 in1042.3 mb 0.00 in0.0 mm 0.00 in0.0 mm 0.00 in0.0 mm
10:19 PM 25.5°F-3.6°C 14.7°F-9.6°C 67% 2.0 mph NE3.2 kmh NE 4.0 mph6.4 kmh 30.78 in1042.3 mb 0.00 in0.0 mm 0.00 in0.0 mm 0.00 in0.0 mm
10:21 PM 25.4°F-3.7°C 14.6°F-9.7°C 67% 2.0 mph NNE3.2 kmh NNE 4.0 mph6.4 kmh 30.79 in1042.7 mb 0.00 in0.0 mm 0.00 in0.0 mm 0.00 in0.0 mm
10:23 PM 25.4°F-3.7°C 14.6°F-9.7°C 67% 1.0 mph NNE1.6 kmh NNE 4.0 mph6.4 kmh 30.79 in1042.7 mb 0.00 in0.0 mm 0.00 in0.0 mm 0.00 in0.0 mm
10:25 PM 25.3°F-3.7°C 14.5°F-9.7°C 67% 2.0 mph NE3.2 kmh NE 4.0 mph6.4 kmh 30.79 in1042.7 mb 0.00 in0.0 mm 0.00 in0.0 mm 0.00 in0.0 mm
10:27 PM 25.3°F-3.7°C 14.9°F-9.5°C 68% 3.0 mph NE4.8 kmh NE 5.0 mph8.0 kmh 30.79 in1042.7 mb 0.00 in0.0 mm 0.00 in0.0 mm 0.00 in0.0 mm
10:29 PM 25.2°F-3.8°C 14.8°F-9.6°C 68% 2.0 mph ENE3.2 kmh ENE 5.0 mph8.0 kmh 30.79 in1042.7 mb 0.00 in0.0 mm 0.00 in0.0 mm 0.00 in0.0 mm
10:31 PM 25.2°F-3.8°C 14.8°F-9.6°C 68% 1.0 mph NE1.6 kmh NE 5.0 mph8.0 kmh 30.79 in1042.7 mb 0.00 in0.0 mm 0.00 in0.0 mm 0.00 in0.0 mm
10:33 PM 25.2°F-3.8°C 14.8°F-9.6°C 68% 2.0 mph NE3.2 kmh NE 5.0 mph8.0 kmh 30.79 in1042.7 mb 0.00 in0.0 mm 0.00 in0.0 mm 0.00 in0.0 mm
10:35 PM 25.1°F-3.8°C 14.7°F-9.6°C 68% 1.0 mph NE1.6 kmh NE 5.0 mph8.0 kmh 30.79 in1042.7 mb 0.00 in0.0 mm 0.00 in0.0 mm 0.00 in0.0 mm
10:37 PM 25.1°F-3.8°C 14.7°F-9.6°C 68% 1.0 mph NE1.6 kmh NE 5.0 mph8.0 kmh 30.79 in1042.7 mb 0.00 in0.0 mm 0.00 in0.0 mm 0.00 in0.0 mm
10:39 PM 25.0°F-3.9°C 14.6°F-9.7°C 68% 2.0 mph NE3.2 kmh NE 5.0 mph8.0 kmh 30.79 in1042.7 mb 0.00 in0.0 mm 0.00 in0.0 mm 0.00 in0.0 mm
10:41 PM 24.9°F-3.9°C 14.8°F-9.6°C 69% Calm Calm 5.0 mph8.0 kmh 30.79 in1042.7 mb 0.00 in0.0 mm 0.00 in0.0 mm 0.00 in0.0 mm
10:43 PM 24.8°F-4.0°C 14.7°F-9.6°C 69% 1.0 mph ENE1.6 kmh ENE 5.0 mph8.0 kmh 30.79 in1042.7 mb 0.00 in0.0 mm 0.00 in0.0 mm 0.00 in0.0 mm
10:45 PM 24.7°F-4.1°C 14.6°F-9.7°C 69% 1.0 mph NE1.6 kmh NE 5.0 mph8.0 kmh 30.79 in1042.7 mb 0.00 in0.0 mm 0.00 in0.0 mm 0.00 in0.0 mm
10:47 PM 24.6°F-4.1°C 14.9°F-9.5°C 70% 1.0 mph NE1.6 kmh NE 3.0 mph4.8 kmh 30.79 in1042.7 mb 0.00 in0.0 mm 0.00 in0.0 mm 0.00 in0.0 mm
10:49 PM 24.5°F-4.2°C 14.4°F-9.8°C 69% 1.0 mph NE1.6 kmh NE 4.0 mph6.4 kmh 30.79 in1042.7 mb 0.00 in0.0 mm 0.00 in0.0 mm 0.00 in0.0 mm
10:51 PM 24.4°F-4.2°C 14.7°F-9.6°C 70% 2.0 mph NE3.2 kmh NE 4.0 mph6.4 kmh 30.79 in1042.7 mb 0.00 in0.0 mm 0.00 in0.0 mm 0.00 in0.0 mm
10:53 PM 24.4°F-4.2°C 14.7°F-9.6°C 70% 2.0 mph ENE3.2 kmh ENE 4.0 mph6.4 kmh 30.79 in1042.7 mb 0.00 in0.0 mm 0.00 in0.0 mm 0.00 in0.0 mm
10:55 PM 24.3°F-4.3°C 14.6°F-9.7°C 70% 3.0 mph NE4.8 kmh NE 4.0 mph6.4 kmh 30.79 in1042.7 mb 0.00 in0.0 mm 0.00 in0.0 mm 0.00 in0.0 mm
10:57 PM 24.3°F-4.3°C 14.6°F-9.7°C 70% 2.0 mph NE3.2 kmh NE 4.0 mph6.4 kmh 30.79 in1042.7 mb 0.00 in0.0 mm 0.00 in0.0 mm 0.00 in0.0 mm
10:59 PM 24.3°F-4.3°C 14.6°F-9.7°C 70% 2.0 mph ENE3.2 kmh ENE 5.0 mph8.0 kmh 30.79 in1042.7 mb 0.00 in0.0 mm 0.00 in0.0 mm 0.00 in0.0 mm
11:01 PM 24.2°F-4.3°C 14.5°F-9.7°C 70% 2.0 mph NE3.2 kmh NE 5.0 mph8.0 kmh 30.79 in1042.7 mb 0.00 in0.0 mm 0.00 in0.0 mm 0.00 in0.0 mm
11:03 PM 24.3°F-4.3°C 14.6°F-9.7°C 70% 4.0 mph NE6.4 kmh NE 5.0 mph8.0 kmh 30.79 in1042.7 mb 0.00 in0.0 mm 0.00 in0.0 mm 0.00 in0.0 mm
11:05 PM 24.2°F-4.3°C 14.5°F-9.7°C 70% 3.0 mph ENE4.8 kmh ENE 6.0 mph9.7 kmh 30.79 in1042.7 mb 0.00 in0.0 mm 0.00 in0.0 mm 0.00 in0.0 mm
11:07 PM 24.2°F-4.3°C 14.8°F-9.6°C 71% 2.0 mph NE3.2 kmh NE 6.0 mph9.7 kmh 30.79 in1042.7 mb 0.00 in0.0 mm 0.00 in0.0 mm 0.00 in0.0 mm
11:09 PM 24.2°F-4.3°C 14.8°F-9.6°C 71% 2.0 mph NE3.2 kmh NE 6.0 mph9.7 kmh 30.79 in1042.7 mb 0.00 in0.0 mm 0.00 in0.0 mm 0.00 in0.0 mm
11:11 PM 24.1°F-4.4°C 14.8°F-9.6°C 71% 3.0 mph NNE4.8 kmh NNE 6.0 mph9.7 kmh 30.79 in1042.7 mb 0.00 in0.0 mm 0.00 in0.0 mm 0.00 in0.0 mm
11:13 PM 24.0°F-4.4°C 14.7°F-9.6°C 71% 2.0 mph E3.2 kmh E 6.0 mph9.7 kmh 30.79 in1042.7 mb 0.00 in0.0 mm 0.00 in0.0 mm 0.00 in0.0 mm
11:15 PM 24.0°F-4.4°C 14.7°F-9.6°C 71% 1.0 mph NE1.6 kmh NE 6.0 mph9.7 kmh 30.79 in1042.7 mb 0.00 in0.0 mm 0.00 in0.0 mm 0.00 in0.0 mm
11:17 PM 23.9°F-4.5°C 14.6°F-9.7°C 71% 2.0 mph ENE3.2 kmh ENE 6.0 mph9.7 kmh 30.79 in1042.7 mb 0.00 in0.0 mm 0.00 in0.0 mm 0.00 in0.0 mm
11:19 PM 23.8°F-4.6°C 14.5°F-9.7°C 71% 3.0 mph NE4.8 kmh NE 6.0 mph9.7 kmh 30.79 in1042.7 mb 0.00 in0.0 mm 0.00 in0.0 mm 0.00 in0.0 mm
11:21 PM 23.8°F-4.6°C 14.5°F-9.7°C 71% 1.0 mph NE1.6 kmh NE 6.0 mph9.7 kmh 30.79 in1042.7 mb 0.00 in0.0 mm 0.00 in0.0 mm 0.00 in0.0 mm
11:23 PM 23.7°F-4.6°C 14.7°F-9.6°C 72% 4.0 mph ENE6.4 kmh ENE 6.0 mph9.7 kmh 30.79 in1042.7 mb 0.00 in0.0 mm 0.00 in0.0 mm 0.00 in0.0 mm
11:25 PM 23.6°F-4.7°C 14.6°F-9.7°C 72% 2.0 mph ENE3.2 kmh ENE 5.0 mph8.0 kmh 30.79 in1042.7 mb 0.00 in0.0 mm 0.00 in0.0 mm 0.00 in0.0 mm
11:27 PM 23.6°F-4.7°C 14.6°F-9.7°C 72% 3.0 mph NE4.8 kmh NE 7.0 mph11.3 kmh 30.79 in1042.7 mb 0.00 in0.0 mm 0.00 in0.0 mm 0.00 in0.0 mm
11:29 PM 23.5°F-4.7°C 14.5°F-9.7°C 72% 3.0 mph NE4.8 kmh NE 10.0 mph16.1 kmh 30.79 in1042.7 mb 0.00 in0.0 mm 0.00 in0.0 mm 0.00 in0.0 mm
11:31 PM 23.5°F-4.7°C 14.9°F-9.5°C 73% 2.0 mph NE3.2 kmh NE 10.0 mph16.1 kmh 30.79 in1042.7 mb 0.00 in0.0 mm 0.00 in0.0 mm 0.00 in0.0 mm
11:33 PM 23.5°F-4.7°C 14.9°F-9.5°C 73% 3.0 mph NE4.8 kmh NE 10.0 mph16.1 kmh 30.79 in1042.7 mb 0.00 in0.0 mm 0.00 in0.0 mm 0.00 in0.0 mm
11:35 PM 23.4°F-4.8°C 14.8°F-9.6°C 73% 4.0 mph NE6.4 kmh NE 10.0 mph16.1 kmh 30.78 in1042.3 mb 0.00 in0.0 mm 0.00 in0.0 mm 0.00 in0.0 mm
11:37 PM 23.4°F-4.8°C 14.8°F-9.6°C 73% 4.0 mph ENE6.4 kmh ENE 10.0 mph16.1 kmh 30.79 in1042.7 mb 0.00 in0.0 mm 0.00 in0.0 mm 0.00 in0.0 mm
11:39 PM 23.3°F-4.8°C 14.7°F-9.6°C 73% 3.0 mph NE4.8 kmh NE 10.0 mph16.1 kmh 30.79 in1042.7 mb 0.00 in0.0 mm 0.00 in0.0 mm 0.00 in0.0 mm
11:41 PM 23.3°F-4.8°C 14.7°F-9.6°C 73% 3.0 mph NE4.8 kmh NE 10.0 mph16.1 kmh 30.79 in1042.7 mb 0.00 in0.0 mm 0.00 in0.0 mm 0.00 in0.0 mm
11:43 PM 23.2°F-4.9°C 14.9°F-9.5°C 74% 3.0 mph ENE4.8 kmh ENE 10.0 mph16.1 kmh 30.79 in1042.7 mb 0.00 in0.0 mm 0.00 in0.0 mm 0.00 in0.0 mm
11:45 PM 23.1°F-4.9°C 14.8°F-9.6°C 74% 2.0 mph ENE3.2 kmh ENE 10.0 mph16.1 kmh 30.78 in1042.3 mb 0.00 in0.0 mm 0.00 in0.0 mm 0.00 in0.0 mm
11:47 PM 23.1°F-4.9°C 14.8°F-9.6°C 74% 5.0 mph NE8.0 kmh NE 10.0 mph16.1 kmh 30.78 in1042.3 mb 0.00 in0.0 mm 0.00 in0.0 mm 0.00 in0.0 mm
11:49 PM 23.1°F-4.9°C 14.8°F-9.6°C 74% 4.0 mph NE6.4 kmh NE 9.0 mph14.5 kmh 30.79 in1042.7 mb 0.00 in0.0 mm 0.00 in0.0 mm 0.00 in0.0 mm
11:51 PM 23.0°F-5.0°C 14.7°F-9.6°C 74% 2.0 mph NE3.2 kmh NE 9.0 mph14.5 kmh 30.79 in1042.7 mb 0.00 in0.0 mm 0.00 in0.0 mm 0.00 in0.0 mm
11:53 PM 22.9°F-5.1°C 14.6°F-9.7°C 74% 4.0 mph NNE6.4 kmh NNE 9.0 mph14.5 kmh 30.79 in1042.7 mb 0.00 in0.0 mm 0.00 in0.0 mm 0.00 in0.0 mm
11:55 PM 22.9°F-5.1°C 14.9°F-9.5°C 75% 5.0 mph ENE8.0 kmh ENE 9.0 mph14.5 kmh 30.79 in1042.7 mb 0.00 in0.0 mm 0.00 in0.0 mm 0.00 in0.0 mm
11:57 PM 22.8°F-5.1°C 14.8°F-9.6°C 75% 6.0 mph NE9.7 kmh NE 9.0 mph14.5 kmh 30.79 in1042.7 mb 0.00 in0.0 mm 0.00 in0.0 mm 0.00 in0.0 mm
11:59 PM 22.7°F-5.2°C 14.7°F-9.6°C 75% 4.0 mph E6.4 kmh E 7.0 mph11.3 kmh 30.79 in1042.7 mb 0.00 in0.0 mm 0.00 in0.0 mm 0.00 in0.0 mm